Flight Track Log - Related Links

Times and Time Zones

All times are in EDT time to prevent confusion due to time zone crossing. See the UAL927 flight status page for this flight to view local times or setup timezone preferences in your user account.

Time Position Orientation Groundspeed Altitude Reporting Facility
EDT Latitude Longitude Course Direction KTS MPH feet Rate Location/Type
Sun 12:57:49 PM 50.0350 8.5460 90° East 110 127  Level FlightAware ADS-B
Sun 12:58:09 PM 50.0400 8.5670 70° East 175 201 1,857 Level FlightAware ADS-B
Sun 12:58:31 PM 50.0470 8.5930 67° East 175 201 1,300 2,864 Climbing FlightAware ADS-B
Sun 12:58:53 PM 50.0530 8.6190 70° East 179 206 2,100 1,857 Climbing FlightAware ADS-B
Sun 12:59:13 PM 50.0570 8.6420 75° East 180 207 2,600 1,500 Climbing FlightAware ADS-B
Sun 12:59:33 PM 50.0630 8.6680 70° East 184 212 3,100 1,650 Climbing FlightAware ADS-B
Sun 12:59:53 PM 50.0690 8.6920 69° East 181 208 3,700 1,273 Climbing FlightAware ADS-B
Sun 01:00:06 PM 50.0740 8.7080 64° Northeast 195 224 3,800 720 Climbing FlightAware ADS-B
Sun 01:00:18 PM 50.0820 8.7200 44° Northeast 210 242 4,000 720 Climbing FlightAware ADS-B
Sun 01:00:31 PM 50.0930 8.7290 28° Northeast 227 261 4,100 909 Climbing FlightAware ADS-B
Sun 01:00:51 PM 50.1150 8.7400 18° North 242 278 4,500 1,000 Climbing FlightAware ADS-B
Sun 01:01:07 PM 50.1320 8.7500 21° North 257 296 4,700 833 Climbing FlightAware ADS-B
Sun 01:01:27 PM 50.1550 8.7650 23° Northeast 279 321 5,000 1,125 Climbing FlightAware ADS-B
Sun 01:01:39 PM 50.1690 8.7760 27° Northeast 288 331 5,300 1,333 Climbing FlightAware ADS-B
Sun 01:02:03 PM 50.1990 8.7960 23° Northeast 311 358 5,800 1,091 Climbing FlightAware ADS-B
Sun 01:02:23 PM 50.2280 8.8160 24° Northeast 336 387 6,100 857 Climbing FlightAware ADS-B
Sun 01:02:45 PM 50.2590 8.8360 22° Northeast 361 415 6,400 706 Climbing FlightAware ADS-B
Sun 01:02:57 PM 50.2780 8.8430 13° North 376 433 6,500 1,200 Climbing FlightAware ADS-B
Sun 01:03:05 PM 50.2940 8.8440 North 383 441 6,800 1,875 Climbing FlightAware ADS-B
Sun 01:03:13 PM 50.3080 8.8430 357° North 387 445 7,000 2,143 Climbing FlightAware ADS-B
Sun 01:03:33 PM 50.3440 8.8340 351° North 393 452 7,800 2,550 Climbing FlightAware ADS-B
Sun 01:03:53 PM 50.3790 8.8180 344° North 397 457 8,700 2,550 Climbing FlightAware ADS-B
Sun 01:04:13 PM 50.4130 8.7930 335° Northwest 401 461 9,500 2,464 Climbing FlightAware ADS-B
Sun 01:04:49 PM 50.4710 8.7460 333° Northwest 405 466 11,000 2,417 Climbing FlightAware ADS-B
Sun 01:05:25 PM 50.5350 8.6960 334° Northwest 412 474 12,400 2,294 Climbing FlightAware ADS-B
Sun 01:05:57 PM 50.5880 8.6530 333° Northwest 417 480 13,600 2,143 Climbing FlightAware ADS-B
Sun 01:06:35 PM 50.6530 8.6010 333° Northwest 423 487 14,900 2,057 Climbing FlightAware ADS-B
Sun 01:07:07 PM 50.7100 8.5550 333° Northwest 429 494 16,000 1,886 Climbing FlightAware ADS-B
Sun 01:07:45 PM 50.7780 8.5000 333° Northwest 438 504 17,100 1,833 Climbing FlightAware ADS-B
Sun 01:08:19 PM 50.8400 8.4500 333° Northwest 442 509 18,200 1,853 Climbing FlightAware ADS-B
Sun 01:08:53 PM 50.9030 8.3990 333° Northwest 447 514 19,200 1,676 Climbing FlightAware ADS-B
Sun 01:09:27 PM 50.9650 8.3490 333° Northwest 452 520 20,100 1,714 Climbing FlightAware ADS-B
Sun 01:10:03 PM 51.0320 8.2940 333° Northwest 453 521 21,200 1,629 Climbing FlightAware ADS-B
Sun 01:10:37 PM 51.0940 8.2340 329° Northwest 460 529 22,000 1,292 Climbing FlightAware ADS-B
Sun 01:11:08 PM 51.1396 8.1669 317° Northwest 466 536 22,600 1,238 Climbing FlightAware ADS-B
Sun 01:11:40 PM 51.1861 8.0986 317° Northwest 470 541 23,300 1,355 Climbing FlightAware ADS-B
Sun 01:12:10 PM 51.2409 8.0219 319° Northwest 474 545 24,000 1,313 Climbing FlightAware ADS-B
Sun 01:12:44 PM 51.2955 7.9468 319° Northwest 476 548 24,700 1,219 Climbing FlightAware ADS-B
Sun 01:13:14 PM 51.3472 7.8754 319° Northwest 481 554 25,300 1,180 Climbing FlightAware ADS-B
Sun 01:13:45 PM 51.3998 7.8030 319° Northwest 484 557 25,900 1,082 Climbing FlightAware ADS-B
Sun 01:14:15 PM 51.4518 7.7318 320° Northwest 488 562 26,400 984 Climbing FlightAware ADS-B
Sun 01:14:46 PM 51.5015 7.6646 320° Northwest 491 565 26,900 984 Climbing FlightAware ADS-B
Sun 01:15:16 PM 51.5448 7.6058 320° Northwest 494 568 27,400 1,100 Climbing FlightAware ADS-B
Sun 01:15:46 PM 51.6096 7.5163 319° Northwest 493 567 28,000 1,355 Climbing FlightAware ADS-B
Sun 01:16:18 PM 51.6641 7.4409 319° Northwest 489 563 28,800 1,315 Climbing FlightAware ADS-B
Sun 01:16:59 PM 51.7337 7.3437 319° Northwest 488 562 29,600 1,183 Climbing FlightAware ADS-B
Sun 01:17:29 PM 51.7844 7.2720 319° Northwest 487 560 30,200 1,048 Climbing FlightAware ADS-B
Sun 01:18:02 PM 51.8383 7.1957 319° Northwest 487 560 30,700 986 Climbing FlightAware ADS-B
Sun 01:18:42 PM 51.9047 7.1017 319° Northwest 485 558 31,400 1,014 Climbing FlightAware ADS-B
Sun 01:19:13 PM 51.9582 7.0177 316° Northwest 483 556 31,900 590 Climbing FlightAware ADS-B
Sun 01:19:43 PM 52.0029 6.9509 317° Northwest 482 555 32,000 67 Climbing FlightAware ADS-B
Sun 01:20:42 PM 52.1013 6.8011 317° Northwest 477 549 32,000 129 Level FlightAware ADS-B
Sun 01:21:16 PM 52.1518 6.7229 316° Northwest 483 556 32,200 94 Climbing FlightAware ADS-B
Sun 01:21:46 PM 52.2037 6.6418 316° Northwest 482 555 32,100 -143 Descending FlightAware ADS-B
Sun 01:22:40 PM 52.2892 6.5073 316° Northwest 477 549 32,000 -52 Descending FlightAware ADS-B
Sun 01:23:41 PM 52.3830 6.3600 316° Northwest 474 545 32,000  Level FlightAware ADS-B
Sun 01:24:20 PM 52.4380 6.2730 316° Northwest 473 544 32,000  Level FlightAware ADS-B
Sun 01:24:51 PM 52.4940 6.1840 316° Northwest 473 544 32,000  Level FlightAware ADS-B
Sun 01:25:27 PM 52.5510 6.0930 316° Northwest 473 544 32,000  Level FlightAware ADS-B
Sun 01:26:04 PM 52.6110 5.9970 316° Northwest 475 547 32,000  Level FlightAware ADS-B
Sun 01:26:39 PM 52.6610 5.9160 316° Northwest 475 547 32,000  Level FlightAware ADS-B
Sun 01:27:09 PM 52.7110 5.8360 316° Northwest 475 547 32,000  Level FlightAware ADS-B
Sun 01:27:48 PM 52.7700 5.7410 316° Northwest 476 548 32,000  Level FlightAware ADS-B
Sun 01:28:25 PM 52.8290 5.6450 316° Northwest 477 549 32,000  Level FlightAware ADS-B
Sun 01:28:58 PM 52.8820 5.5590 316° Northwest 477 549 32,000  Level FlightAware ADS-B
Sun 01:29:32 PM 52.9370 5.4690 315° West 477 549 32,000  Level FlightAware ADS-B
Sun 01:30:09 PM 52.9920 5.3800 316° Northwest 477 549 32,000  Level FlightAware ADS-B
Sun 01:30:41 PM 53.0430 5.2950 315° West 477 549 32,000  Level FlightAware ADS-B
Sun 01:31:25 PM 53.1100 5.1830 315° West 477 549 32,000  Level FlightAware ADS-B
Sun 01:31:56 PM 53.1620 5.0980 316° Northwest 477 549 32,000  Level FlightAware ADS-B
Sun 01:32:32 PM 53.2182 5.0037 316° Northwest 502 578 32,000  Level FlightAware UK
Sun 01:32:44 PM 53.2350 4.9760 316° Northwest 476 548 32,000  Level FlightAware ADS-B
Sun 01:33:24 PM 53.2980 4.8710 315° West 475 547 32,000  Level FlightAware ADS-B
Sun 01:33:58 PM 53.3460 4.7900 315° West 475 547 32,000  Level FlightAware ADS-B
Sun 01:34:34 PM 53.4060 4.6890 315° West 475 547 32,000  Level FlightAware ADS-B
Sun 01:35:10 PM 53.4610 4.5950 315° West 475 547 32,000  Level FlightAware ADS-B
Sun 01:35:42 PM 53.5130 4.5070 315° West 475 547 32,000  Level FlightAware ADS-B
Sun 01:36:24 PM 53.5750 4.4000 314° West 475 547 32,000  Level FlightAware ADS-B
Sun 01:37:04 PM 53.6370 4.2950 315° West 475 547 32,000  Level FlightAware ADS-B
Sun 01:37:36 PM 53.6850 4.2130 315° West 475 547 32,000  Level FlightAware ADS-B
Sun 01:37:52 PM 53.7160 4.1770 326° Northwest 474 545 32,000  Level FlightAware ADS-B
Sun 01:38:23 PM 53.7740 4.1220 331° Northwest 475 547 32,000  Level FlightAware ADS-B
Sun 01:38:59 PM 53.8410 4.0540 329° Northwest 474 545 32,000  Level FlightAware ADS-B
Sun 01:39:32 PM 53.9040 3.9910 330° Northwest 474 545 32,000  Level FlightAware ADS-B
Sun 01:40:12 PM 53.9810 3.9170 331° Northwest 475 547 32,000  Level FlightAware ADS-B
Sun 01:40:44 PM 54.0360 3.8630 330° Northwest 476 548 32,000  Level FlightAware ADS-B
Sun 01:41:20 PM 54.1130 3.7880 330° Northwest 475 547 32,000  Level FlightAware ADS-B
Sun 01:41:53 PM 54.1740 3.7280 330° Northwest 475 547 32,000  Level FlightAware ADS-B
Sun 01:42:31 PM 54.2460 3.6580 330° Northwest 474 545 32,000  Level FlightAware ADS-B
Sun 01:43:05 PM 54.3120 3.5930 330° Northwest 474 545 32,000  Level FlightAware ADS-B
Sun 01:43:40 PM 54.3760 3.5300 330° Northwest 474 545 32,000  Level FlightAware ADS-B
Sun 01:44:17 PM 54.4470 3.4600 330° Northwest 474 545 32,000  Level FlightAware ADS-B
Sun 01:44:52 PM 54.5140 3.3940 330° Northwest 474 545 32,000  Level FlightAware ADS-B
Sun 01:45:17 PM 54.5620 3.3460 330° Northwest 474 545 32,000  Level FlightAware ADS-B
Sun 01:45:54 PM 54.6320 3.2760 330° Northwest 474 545 32,000  Level FlightAware ADS-B
Sun 01:46:24 PM 54.6880 3.2200 330° Northwest 474 545 32,000  Level FlightAware ADS-B
Sun 01:47:01 PM 54.7590 3.1490 330° Northwest 474 545 32,000  Level FlightAware ADS-B
Sun 01:47:36 PM 54.8260 3.0820 330° Northwest 473 544 32,000  Level FlightAware ADS-B
Sun 01:47:37 PM 54.8287 3.0797 330° Northwest 502 578 32,000  Level FlightAware UK
Sun 01:48:15 PM 54.8980 3.0080 329° Northwest 472 543 32,000  Level FlightAware ADS-B
Sun 01:48:49 PM 54.9644 2.9418 329° Northwest 500 575 32,000  Level FlightAware UK
Sun 01:48:56 PM 54.9730 2.9320 329° Northwest 465 535 32,000  Level FlightAware ADS-B
Sun 01:49:30 PM 55.0350 2.8690 329° Northwest 471 542 32,000  Level FlightAware ADS-B
Sun 01:49:31 PM 55.0428 2.8617 329° Northwest 500 575 32,000  Level FlightAware UK
Sun 01:50:01 PM 55.0990 2.8043 329° Northwest 500 575 32,000  Level FlightAware UK
Sun 01:50:12 PM 55.1180 2.7840 329° Northwest 471 542 32,000  Level FlightAware ADS-B
Sun 01:50:43 PM 55.1776 2.7233 329° Northwest 500 575 32,000  Level FlightAware UK
Sun 01:50:49 PM 55.1880 2.7120 329° Northwest 471 542 32,000  Level FlightAware ADS-B
Sun 01:51:19 PM 55.2446 2.6540 329° Northwest 500 575 32,000  Level FlightAware UK
Sun 01:51:21 PM 55.2440 2.6540 329° Northwest 471 542 32,000  Level FlightAware ADS-B
Sun 01:51:55 PM 55.3110 2.5850 330° Northwest 469 540 32,000  Level FlightAware ADS-B
Sun 01:52:25 PM 55.3681 2.5264 330° Northwest 500 575 32,000  Level FlightAware UK
Sun 01:52:31 PM 55.3680 2.5250 330° Northwest 469 540 32,000  Level FlightAware ADS-B
Sun 01:53:01 PM 55.4346 2.4566 330° Northwest 500 575 32,000  Level FlightAware UK
Sun 01:53:06 PM 55.4360 2.4550 330° Northwest 468 539 32,000  Level FlightAware ADS-B
Sun 01:53:40 PM 55.4970 2.3900 329° Northwest 466 536 32,000  Level FlightAware ADS-B
Sun 01:54:19 PM 55.5786 2.3038 329° Northwest 498 573 32,000  Level FlightAware UK
Sun 01:54:19 PM 55.5740 2.3080 329° Northwest 466 536 32,000  Level FlightAware ADS-B
Sun 01:54:49 PM 55.6340 2.2454 329° Northwest 498 573 32,000  Level FlightAware UK
Sun 01:54:50 PM 55.6320 2.2470 329° Northwest 465 535 32,000  Level FlightAware ADS-B
Sun 01:55:26 PM 55.7000 2.1750 329° Northwest 465 535 32,000 83 Level FlightAware ADS-B
Sun 01:56:02 PM 55.7680 2.1030 329° Northwest 465 535 32,100 750 Climbing FlightAware ADS-B
Sun 01:56:06 PM 55.7723 2.0986 330° Northwest 466 536 32,500 706 Climbing FlightAware ADS-B
Sun 01:56:36 PM 55.8321 2.0345 330° Northwest 500 575 32,500 194 Level FlightAware UK
Sun 01:56:37 PM 55.8320 2.0340 330° Northwest 466 536 32,600 1,304 Climbing FlightAware ADS-B
Sun 01:56:59 PM 55.8729 1.9907 329° Northwest 458 527 33,000 1,015 Climbing FlightAware ADS-B
Sun 01:57:42 PM 55.9530 1.9042 329° Northwest 496 571 33,700 1,021 Climbing FlightAware UK
Sun 01:57:46 PM 55.9590 1.8980 329° Northwest 458 527 33,800 643 Climbing FlightAware ADS-B
Sun 01:58:10 PM 56.0023 1.8509 329° Northwest 454 522 34,000 222 Climbing FlightAware ADS-B
Sun 01:58:40 PM 56.0563 1.7923 329° Northwest 451 519 34,000  Level FlightAware ADS-B
Sun 01:59:21 PM 56.1298 1.7121 329° Northwest 456 525 34,000  Level FlightAware ADS-B
Sun 01:59:53 PM 56.1874 1.6491 329° Northwest 454 522 34,000  Level FlightAware ADS-B
Sun 02:00:33 PM 56.2583 1.5712 329° Northwest 453 521 34,000  Level FlightAware ADS-B
Sun 02:01:06 PM 56.3171 1.5063 329° Northwest 453 521 34,000  Level FlightAware ADS-B
Sun 02:01:36 PM 56.3712 1.4458 329° Northwest 490 564 34,000  Level FlightAware UK
Sun 02:01:43 PM 56.3838 1.4325 329° Northwest 453 521 34,000  Level FlightAware ADS-B
Sun 02:02:13 PM 56.4372 1.3733 328° Northwest 454 522 34,000  Level FlightAware ADS-B
Sun 02:02:43 PM 56.4901 1.3144 328° Northwest 454 522 34,000  Level FlightAware ADS-B
Sun 02:03:28 PM 56.5697 1.2251 328° Northwest 455 524 34,000  Level FlightAware ADS-B
Sun 02:03:58 PM 56.6235 1.1646 328° Northwest 457 526 34,000  Level FlightAware ADS-B
Sun 02:04:28 PM 56.6773 1.1040 328° Northwest 458 527 34,000  Level FlightAware ADS-B
Sun 02:05:05 PM 56.7448 1.0276 328° Northwest 458 527 34,000  Level FlightAware ADS-B
Sun 02:05:37 PM 56.8016 0.9630 328° Northwest 459 528 34,000  Level FlightAware ADS-B
Sun 02:06:20 PM 56.8778 0.8761 328° Northwest 457 526 34,000  Level FlightAware ADS-B
Sun 02:06:59 PM 56.9486 0.7947 328° Northwest 457 526 34,000  Level FlightAware ADS-B
Sun 02:07:31 PM 57.0059 0.7287 328° Northwest 457 526 34,000  Level FlightAware ADS-B
Sun 02:08:01 PM 57.0591 0.6671 328° Northwest 457 526 34,000  Level FlightAware ADS-B
Sun 02:08:31 PM 57.1126 0.6052 328° Northwest 457 526 34,000  Level FlightAware ADS-B
Sun 02:09:25 PM 57.2050 0.4980 328° Northwest 455 524 34,000 -103 Level FlightAware ADS-B
Sun 02:09:29 PM 57.2161 0.4839 328° Northwest 494 568 33,900  Descending FlightAware UK
Sun 02:09:47 PM 57.2473 0.4478 327° Northwest 456 525 34,000 125 Climbing FlightAware ADS-B
Sun 02:10:17 PM 57.3005 0.3852 328° Northwest 457 526 34,000  Level FlightAware ADS-B
Sun 02:11:04 PM 57.3830 0.2881 328° Northwest 458 527 34,000  Level FlightAware ADS-B
Sun 02:11:34 PM 57.4365 0.2248 328° Northwest 461 531 34,000  Level FlightAware ADS-B
Sun 02:12:04 PM 57.4905 0.1604 327° Northwest 461 531 34,000  Level FlightAware ADS-B
Sun 02:12:38 PM 57.5513 0.0880 327° Northwest 462 532 34,000  Level FlightAware ADS-B
Sun 02:13:18 PM 57.6233 0.0017 327° Northwest 464 534 34,000  Level FlightAware ADS-B
Sun 02:13:49 PM 57.6801 -0.0668 327° Northwest 465 535 34,000  Level FlightAware ADS-B
Sun 02:14:19 PM 57.7338 -0.1318 327° Northwest 460 529 34,000  Level FlightAware ADS-B
Sun 02:14:50 PM 57.7892 -0.1988 327° Northwest 461 531 34,000  Level FlightAware ADS-B
Sun 02:15:26 PM 57.8541 -0.2781 327° Northwest 463 533 34,000  Level FlightAware ADS-B
Sun 02:16:05 PM 57.9262 -0.3663 327° Northwest 465 535 34,000  Level FlightAware ADS-B
Sun 02:16:40 PM 57.9886 -0.4428 327° Northwest 465 535 34,000  Level FlightAware ADS-B
Sun 02:17:10 PM 58.0430 -0.5099 327° Northwest 465 535 34,000  Level FlightAware ADS-B
Sun 02:17:45 PM 58.1040 -0.5860 327° Northwest 465 535 34,000  Level FlightAware ADS-B
Sun 02:17:51 PM 58.1193 -0.6044 328° Northwest 465 535 34,000  Level FlightAware ADS-B
Sun 02:18:21 PM 58.1727 -0.6711 327° Northwest 465 535 34,000  Level FlightAware ADS-B
Sun 02:18:51 PM 58.2277 -0.7398 327° Northwest 465 535 34,000  Level FlightAware ADS-B
Sun 02:19:30 PM 58.2977 -0.8276 327° Northwest 466 536 34,000  Level FlightAware ADS-B
Sun 02:20:00 PM 58.3521 -0.8961 327° Northwest 465 535 34,000  Level FlightAware ADS-B
Sun 02:20:39 PM 58.4239 -0.9870 326° Northwest 466 536 34,000  Level FlightAware ADS-B
Sun 02:21:09 PM 58.4779 -1.0557 326° Northwest 466 536 34,000  Level FlightAware ADS-B
Sun 02:21:39 PM 58.5325 -1.1252 326° Northwest 465 535 34,000  Level FlightAware ADS-B
Sun 02:22:11 PM 58.5894 -1.1975 326° Northwest 492 566 34,000  Level FlightAware UK
Sun 02:22:18 PM 58.6016 -1.2138 326° Northwest 464 534 34,000  Level FlightAware ADS-B
Sun 02:22:48 PM 58.6559 -1.2838 326° Northwest 465 535 34,000  Level FlightAware ADS-B
Sun 02:23:20 PM 58.7135 -1.3583 326° Northwest 465 535 34,000  Level FlightAware ADS-B
Sun 02:23:50 PM 58.7679 -1.4288 326° Northwest 466 536 34,000  Level FlightAware ADS-B
Sun 02:24:31 PM 58.8418 -1.5251 326° Northwest 467 537 34,000  Level FlightAware ADS-B
Sun 02:25:25 PM 58.9350 -1.6470 326° Northwest 467 537 34,000  Level FlightAware ADS-B
Sun 02:25:44 PM 58.9741 -1.6988 326° Northwest 468 539 34,000  Level FlightAware ADS-B
Sun 02:26:33 PM 59.0610 -1.8140 326° Northwest 468 539 34,000  Level FlightAware ADS-B
Sun 02:26:49 PM 59.0916 -1.8547 326° Northwest 468 539 34,000  Level FlightAware ADS-B
Sun 02:27:25 PM 59.1573 -1.9421 326° Northwest 473 544 34,000  Level FlightAware ADS-B
Sun 02:28:06 PM 59.2310 -2.0409 326° Northwest 473 544 34,000  Level FlightAware ADS-B
Sun 02:28:36 PM 59.2845 -2.1129 326° Northwest 474 545 34,000  Level FlightAware ADS-B
Sun 02:29:09 PM 59.3439 -2.1932 325° Northwest 473 544 34,000  Level FlightAware ADS-B
Sun 02:29:45 PM 59.4088 -2.2813 325° Northwest 474 545 34,000  Level FlightAware ADS-B
Sun 02:30:15 PM 59.4626 -2.3546 325° Northwest 474 545 34,000  Level FlightAware ADS-B
Sun 02:30:48 PM 59.5201 -2.4335 325° Northwest 474 545 34,000  Level FlightAware ADS-B
Sun 02:31:18 PM 59.5739 -2.5073 325° Northwest 474 545 34,000  Level FlightAware ADS-B
Sun 02:31:48 PM 59.6280 -2.5820 325° Northwest 475 547 34,000  Level FlightAware ADS-B
Sun 02:32:21 PM 59.6881 -2.6653 325° Northwest 474 545 34,000  Level FlightAware ADS-B
Sun 02:33:01 PM 59.7580 -2.7630 325° Northwest 474 545 34,000  Level FlightAware ADS-B
Sun 02:33:34 PM 59.8170 -2.8450 325° Northwest 476 548 34,000  Level FlightAware ADS-B
Sun 02:33:41 PM 59.8312 -2.8654 324° Northwest 475 547 34,000  Level FlightAware ADS-B
Sun 02:34:19 PM 59.8993 -2.9613 325° Northwest 477 549 34,000  Level FlightAware ADS-B
Sun 02:34:53 PM 59.9601 -3.0472 325° Northwest 477 549 34,000  Level FlightAware ADS-B
Sun 02:35:27 PM 60.0217 -3.1348 325° Northwest 494 568 34,000  Level FlightAware UK
Sun 02:35:47 PM 60.0562 -3.1840 325° Northwest 478 550 34,000  Level FlightAware ADS-B
Sun 02:36:18 PM 60.1130 -3.2653 325° Northwest 479 551 34,000  Level FlightAware ADS-B
Sun 02:37:07 PM 60.2000 -3.3910 324° Northwest 477 549 34,000  Level FlightAware ADS-B
Sun 02:37:49 PM 60.2757 -3.5003 324° Northwest 477 549 34,000  Level FlightAware ADS-B
Sun 02:38:49 PM 60.3810 -3.6540 324° Northwest 476 548 34,000  Level FlightAware ADS-B
Sun 02:39:23 PM 60.4420 -3.7430 324° Northwest 476 548 34,000  Level FlightAware ADS-B
Sun 02:40:01 PM 60.5090 -3.8420 324° Northwest 476 548 34,000  Level FlightAware ADS-B
Sun 02:40:37 PM 60.5740 -3.9380 324° Northwest 476 548 34,000  Level FlightAware ADS-B
Sun 02:41:13 PM 60.6370 -4.0330 324° Northwest 476 548 34,000  Level FlightAware ADS-B
Sun 02:41:45 PM 60.6930 -4.1160 324° Northwest 476 548 34,000  Level FlightAware ADS-B
Sun 02:42:21 PM 60.7570 -4.2130 323° Northwest 476 548 34,000  Level FlightAware ADS-B
Sun 02:42:53 PM 60.8130 -4.2980 324° Northwest 476 548 34,000  Level FlightAware ADS-B
Sun 02:43:28 PM 60.8730 -4.3890 324° Northwest 476 548 34,000  Level FlightAware ADS-B
Sun 02:44:04 PM 60.9380 -4.4880 324° Northwest 477 549 34,000  Level FlightAware ADS-B
Sun 02:44:41 PM 61.0040 -4.5900 323° Northwest 478 550 34,000  Level FlightAware ADS-B
Sun 02:45:17 PM 61.0680 -4.6890 323° Northwest 479 551 34,000  Level FlightAware ADS-B
Sun 02:45:52 PM 61.1260 -4.7840 322° Northwest 481 554 34,000  Level FlightAware ADS-B
Sun 02:46:30 PM 61.1940 -4.8930 322° Northwest 481 554 34,000  Level FlightAware ADS-B
Sun 02:47:02 PM 61.2510 -4.9840 322° Northwest 482 555 34,000  Level FlightAware ADS-B
Sun 02:47:39 PM 61.3160 -5.0880 322° Northwest 481 554 34,000  Level FlightAware ADS-B
Sun 02:48:13 PM 61.3770 -5.1870 322° Northwest 482 555 34,000  Level FlightAware ADS-B
Sun 02:48:50 PM 61.4400 -5.2900 322° Northwest 482 555 34,000  Level FlightAware ADS-B
Sun 02:49:23 PM 61.4990 -5.3880 322° Northwest 482 555 34,000  Level FlightAware ADS-B
Sun 02:49:55 PM 61.5550 -5.4790 322° Northwest 482 555 34,000  Level FlightAware ADS-B
Sun 02:50:33 PM 61.6210 -5.5880 322° Northwest 483 556 34,000  Level FlightAware ADS-B
Sun 02:51:09 PM 61.6840 -5.6940 321° Northwest 483 556 34,000  Level FlightAware ADS-B
Sun 02:51:41 PM 61.7370 -5.7830 322° Northwest 484 557 34,000  Level FlightAware ADS-B
Sun 02:52:18 PM 61.8030 -5.8930 322° Northwest 485 558 34,000  Level FlightAware ADS-B
Sun 02:52:54 PM 61.8660 -6.0010 321° Northwest 486 559 34,000  Level FlightAware ADS-B
Sun 02:53:27 PM 61.9230 -6.0980 321° Northwest 486 559 34,000  Level FlightAware ADS-B
Sun 02:54:03 PM 61.9880 -6.2090 321° Northwest 487 560 34,000  Level FlightAware ADS-B
Sun 02:54:37 PM 62.0460 -6.3100 321° Northwest 486 559 34,000  Level FlightAware ADS-B
Sun 02:55:12 PM 62.1070 -6.4130 322° Northwest 484 557 34,000  Level FlightAware ADS-B
Sun 02:55:49 PM 62.1710 -6.5260 321° Northwest 482 555 34,000  Level FlightAware ADS-B
Sun 02:56:21 PM 62.2260 -6.6220 321° Northwest 481 554 34,000  Level FlightAware ADS-B
Sun 02:56:49 PM 62.2750 -6.7080 321° Northwest 481 554 34,000  Level FlightAware ADS-B
Sun 02:57:27 PM 62.3400 -6.8220 321° Northwest 480 552 34,000  Level FlightAware ADS-B
Sun 02:58:02 PM 62.3990 -6.9270 321° Northwest 478 550 34,000  Level FlightAware ADS-B
Sun 02:58:34 PM 62.4530 -7.0230 321° Northwest 477 549 34,000  Level FlightAware ADS-B
Sun 02:59:11 PM 62.5170 -7.1380 320° Northwest 478 550 34,000  Level FlightAware ADS-B
Sun 02:59:47 PM 62.5770 -7.2460 320° Northwest 479 551 34,000  Level FlightAware ADS-B
Sun 03:00:20 PM 62.6330 -7.3480 320° Northwest 480 552 34,000  Level FlightAware ADS-B
Sun 03:00:53 PM 62.6890 -7.4500 320° Northwest 481 554 34,000  Level FlightAware ADS-B
Sun 03:01:27 PM 62.7480 -7.5570 320° Northwest 479 551 34,000  Level FlightAware ADS-B
Sun 03:02:06 PM 62.8120 -7.6760 320° Northwest 478 550 34,000  Level FlightAware ADS-B
Sun 03:02:41 PM 62.8730 -7.7880 320° Northwest 478 550 34,000  Level FlightAware ADS-B
Sun 03:03:18 PM 62.9330 -7.9020 319° Northwest 478 550 34,000  Level FlightAware ADS-B
Sun 03:03:52 PM 62.9820 -7.9950 319° Northwest 478 550 34,000  Level FlightAware ADS-B
Sun 03:04:28 PM 63.0330 -8.0930 319° Northwest 478 550 34,000  Level FlightAware ADS-B
Sun 03:05:04 PM 63.0850 -8.1910 320° Northwest 478 550 34,000  Level FlightAware ADS-B
Sun 03:05:41 PM 63.1370 -8.2920 319° Northwest 478 550 34,000  Level FlightAware ADS-B
Sun 03:06:17 PM 63.1880 -8.3900 319° Northwest 478 550 34,000  Level FlightAware ADS-B
Sun 03:06:53 PM 63.2930 -8.5850 320° Northwest 482 555 34,000  Level FlightAware ADS-B
Sun 03:07:21 PM 63.3400 -8.6760 319° Northwest 482 555 34,000  Level FlightAware ADS-B
Sun 03:07:56 PM 63.4010 -8.7940 319° Northwest 483 556 34,000  Level FlightAware ADS-B
Sun 03:08:45 PM 63.4720 -8.9360 318° Northwest 484 557 34,000  Level FlightAware ADS-B
Sun 03:09:19 PM 63.5380 -9.0640 319° Northwest 485 558 34,000  Level FlightAware ADS-B
Sun 03:09:55 PM 63.5990 -9.1840 319° Northwest 485 558 34,000  Level FlightAware ADS-B
Sun 03:10:27 PM 63.6540 -9.2940 318° Northwest 485 558 34,000  Level FlightAware ADS-B
Sun 03:11:05 PM 63.7160 -9.4200 318° Northwest 485 558 34,000  Level FlightAware ADS-B
Sun 03:11:41 PM 63.7760 -9.5400 319° Northwest 484 557 34,000  Level FlightAware ADS-B
Sun 03:12:17 PM 63.8370 -9.6640 318° Northwest 484 557 34,000  Level FlightAware ADS-B
Sun 03:12:48 PM 63.8880 -9.7690 318° Northwest 483 556 34,000  Level FlightAware ADS-B
Sun 03:13:25 PM 63.9480 -9.8920 318° Northwest 482 555 34,000  Level FlightAware ADS-B
Sun 03:14:14 PM 64.0250 -10.0380 320° Northwest 483 556 34,000  Level FlightAware ADS-B
Sun 03:14:50 PM 64.0780 -10.1370 321° Northwest 483 556 34,000  Level FlightAware ADS-B
Sun 03:15:26 PM 64.1310 -10.2350 321° Northwest 483 556 34,000  Level FlightAware ADS-B
Sun 03:16:03 PM 64.1860 -10.3370 321° Northwest 483 556 34,000  Level FlightAware ADS-B
Sun 03:16:37 PM 64.2360 -10.4300 321° Northwest 483 556 34,000  Level FlightAware ADS-B
Sun 03:17:14 PM 64.2910 -10.5320 321° Northwest 483 556 34,000  Level FlightAware ADS-B
Sun 03:17:50 PM 64.3440 -10.6310 321° Northwest 483 556 34,000  Level FlightAware ADS-B
Sun 03:18:26 PM 64.3970 -10.7310 321° Northwest 483 556 34,000  Level FlightAware ADS-B
Sun 03:19:02 PM 64.4500 -10.8310 321° Northwest 483 556 34,000  Level FlightAware ADS-B
Sun 03:19:38 PM 64.5030 -10.9310 321° Northwest 483 556 34,000  Level FlightAware ADS-B
Sun 03:20:02 PM 64.5380 -10.9970 321° Northwest 483 556 34,000  Level FlightAware ADS-B
Sun 03:20:40 PM 64.5950 -11.1030 321° Northwest 483 556 34,000  Level FlightAware ADS-B
Sun 03:21:16 PM 64.6480 -11.2040 321° Northwest 483 556 34,000  Level FlightAware ADS-B
Sun 03:21:52 PM 64.7010 -11.3040 321° Northwest 483 556 34,000  Level FlightAware ADS-B
Sun 03:22:28 PM 64.7540 -11.4050 321° Northwest 483 556 34,000  Level FlightAware ADS-B
Sun 03:23:05 PM 64.8090 -11.5090 321° Northwest 483 556 34,000  Level FlightAware ADS-B
Sun 03:23:41 PM 64.8620 -11.6100 321° Northwest 483 556 34,000 11 Level FlightAware ADS-B
Sun 03:26:00 PM 65.0289 -12.1839 305° West  Level Estimated
Sun 03:27:00 PM 65.1002 -12.4338 304° West  Level Estimated
Sun 03:28:00 PM 65.1712 -12.6850 304° West  Level Estimated
Sun 03:29:00 PM 65.2417 -12.9376 304° West  Level Estimated
Sun 03:30:00 PM 65.3118 -13.1916 304° West  Level Estimated
Sun 03:31:00 PM 65.3814 -13.4469 303° West  Level Estimated
Sun 03:32:00 PM 65.4506 -13.7036 303° West  Level Estimated
Sun 03:33:00 PM 65.5194 -13.9616 303° West  Level Estimated
Sun 03:34:00 PM 65.5877 -14.2210 303° West  Level Estimated
Sun 03:35:00 PM 65.6556 -14.4817 302° West  Level Estimated
Sun 03:36:00 PM 65.7231 -14.7438 302° West  Level Estimated
Sun 03:37:00 PM 65.7901 -15.0073 302° West  Level Estimated
Sun 03:38:00 PM 65.8566 -15.2721 302° West  Level Estimated
Sun 03:39:00 PM 65.9227 -15.5383 301° West  Level Estimated
Sun 03:40:00 PM 65.9883 -15.8059 301° West  Level Estimated
Sun 03:41:00 PM 66.0535 -16.0749 301° West  Level Estimated
Sun 03:42:00 PM 66.1182 -16.3452 301° West  Level Estimated
Sun 03:43:00 PM 66.1824 -16.6169 300° West  Level Estimated
Sun 03:44:00 PM 66.2461 -16.8900 300° West  Level Estimated
Sun 03:45:00 PM 66.3093 -17.1645 300° West  Level Estimated
Sun 03:46:00 PM 66.3721 -17.4403 300° West  Level Estimated
Sun 03:47:00 PM 66.4344 -17.7176 299° West  Level Estimated
Sun 03:48:00 PM 66.4962 -17.9962 299° West  Level Estimated
Sun 03:49:00 PM 66.5574 -18.2762 299° West  Level Estimated
Sun 03:50:00 PM 66.6182 -18.5576 299° West  Level Estimated
Sun 03:51:00 PM 66.6785 -18.8403 298° West  Level Estimated
Sun 03:52:00 PM 66.7383 -19.1244 298° West  Level Estimated
Sun 03:53:00 PM 66.7975 -19.4099 298° West  Level Estimated
Sun 03:54:00 PM 66.8562 -19.6968 298° West  Level Estimated
Sun 03:55:00 PM 66.9144 -19.9850 297° West  Level Estimated
Sun 03:56:00 PM 66.9721 -20.2746 297° West  Level Estimated
Sun 03:57:00 PM 67.0293 -20.5656 297° West  Level Estimated
Sun 03:58:00 PM 67.0859 -20.8580 297° West  Level Estimated
Sun 03:59:00 PM 67.1420 -21.1517 296° West  Level Estimated
Sun 04:00:00 PM 67.1975 -21.4468 296° West  Level Estimated
Sun 04:01:00 PM 67.2525 -21.7432 296° West  Level Estimated
Sun 04:02:00 PM 67.3069 -22.0410 295° West  Level Estimated
Sun 04:03:00 PM 67.3608 -22.3401 295° West  Level Estimated
Sun 04:04:00 PM 67.4142 -22.6406 295° West  Level Estimated
Sun 04:05:00 PM 67.4669 -22.9424 295° West  Level Estimated
Sun 04:06:00 PM 67.5191 -23.2456 294° West  Level Estimated
Sun 04:07:00 PM 67.5708 -23.5501 294° West  Level Estimated
Sun 04:08:00 PM 67.6218 -23.8559 294° West  Level Estimated
Sun 04:09:00 PM 67.6723 -24.1630 294° West  Level Estimated
Sun 04:10:00 PM 67.7223 -24.4715 293° West  Level Estimated
Sun 04:11:00 PM 67.7716 -24.7812 293° West  Level Estimated
Sun 04:12:00 PM 67.8203 -25.0923 293° West  Level Estimated
Sun 04:13:00 PM 67.8684 -25.4046 292° West  Level Estimated
Sun 04:14:00 PM 67.9160 -25.7182 292° West  Level Estimated
Sun 04:15:00 PM 67.9629 -26.0331 292° West  Level Estimated
Sun 04:16:00 PM 68.0093 -26.3493 292° West  Level Estimated
Sun 04:17:00 PM 68.0550 -26.6667 291° West  Level Estimated
Sun 04:18:00 PM 68.1001 -26.9854 291° West  Level Estimated
Sun 04:19:00 PM 68.1446 -27.3054 291° West  Level Estimated
Sun 04:20:00 PM 68.1885 -27.6265 290° West  Level Estimated
Sun 04:21:00 PM 68.2318 -27.9489 290° West  Level Estimated
Sun 04:22:00 PM 68.2744 -28.2725 290° West  Level Estimated
Sun 04:23:00 PM 68.3164 -28.5973 289° West  Level Estimated
Sun 04:24:00 PM 68.3577 -28.9233 289° West  Level Estimated
Sun 04:25:00 PM 68.3985 -29.2505 289° West  Level Estimated
Sun 04:26:00 PM 68.4386 -29.5788 289° West  Level Estimated
Sun 04:27:00 PM 68.4780 -29.9083 288° West  Level Estimated
Sun 04:28:00 PM 68.5168 -30.2390 288° West  Level Estimated
Sun 04:29:00 PM 68.5549 -30.5707 288° West  Level Estimated
Sun 04:30:00 PM 68.5924 -30.9036 287° West  Level Estimated
Sun 04:31:00 PM 68.6292 -31.2376 287° West  Level Estimated
Sun 04:32:00 PM 68.6654 -31.5727 287° West  Level Estimated
Sun 04:33:00 PM 68.7009 -31.9088 286° West  Level Estimated
Sun 04:34:00 PM 68.7357 -32.2460 286° West  Level Estimated
Sun 04:35:00 PM 68.7700 -32.5848 286° West  Level Estimated
Sun 04:36:00 PM 68.8035 -32.9246 285° West  Level Estimated
Sun 04:37:00 PM 68.8363 -33.2654 285° West  Level Estimated
Sun 04:38:00 PM 68.8685 -33.6073 285° West  Level Estimated
Sun 04:39:00 PM 68.9000 -33.9501 284° West  Level Estimated
Sun 04:40:00 PM 68.9307 -34.2939 284° West  Level Estimated
Sun 04:41:00 PM 68.9608 -34.6386 284° West  Level Estimated
Sun 04:42:00 PM 68.9902 -34.9843 283° West  Level Estimated
Sun 04:43:00 PM 69.0189 -35.3308 283° West  Level Estimated
Sun 04:44:00 PM 69.0469 -35.6783 283° West  Level Estimated
Sun 04:45:00 PM 69.0742 -36.0266 283° West  Level Estimated
Sun 04:46:00 PM 69.1008 -36.3758 282° West  Level Estimated
Sun 04:47:00 PM 69.1266 -36.7259 282° West  Level Estimated
Sun 04:48:00 PM 69.1518 -37.0767 282° West  Level Estimated
Sun 04:49:00 PM 69.1762 -37.4284 281° West  Level Estimated
Sun 04:50:00 PM 69.1999 -37.7808 281° West  Level Estimated
Sun 04:51:00 PM 69.2229 -38.1340 281° West  Level Estimated
Sun 04:52:00 PM 69.2452 -38.4879 280° West  Level Estimated
Sun 04:53:00 PM 69.2668 -38.8426 280° West  Level Estimated
Sun 04:54:00 PM 69.2876 -39.1979 280° West  Level Estimated
Sun 04:55:00 PM 69.3077 -39.5539 279° West  Level Estimated
Sun 04:56:00 PM 69.3270 -39.9106 279° West  Level Estimated
Sun 04:57:00 PM 69.3456 -40.2679 279° West  Level Estimated
Sun 04:58:00 PM 69.3635 -40.6258 278° West  Level Estimated
Sun 04:59:00 PM 69.3807 -40.9842 278° West  Level Estimated
Sun 05:00:00 PM 69.3971 -41.3433 278° West  Level Estimated
Sun 05:01:00 PM 69.4127 -41.7028 277° West  Level Estimated
Sun 05:02:00 PM 69.4276 -42.0629 277° West  Level Estimated
Sun 05:03:00 PM 69.4418 -42.4234 277° West  Level Estimated
Sun 05:04:00 PM 69.4552 -42.7845 276° West  Level Estimated
Sun 05:05:00 PM 69.4679 -43.1459 276° West  Level Estimated
Sun 05:06:00 PM 69.4799 -43.5078 276° West  Level Estimated
Sun 05:07:00 PM 69.4910 -43.8701 275° West  Level Estimated
Sun 05:08:00 PM 69.5014 -44.2327 275° West  Level Estimated
Sun 05:09:00 PM 69.5111 -44.5957 275° West  Level Estimated
Sun 05:10:00 PM 69.5200 -44.9590 274° West  Level Estimated
Sun 05:11:00 PM 69.5282 -45.3225 274° West  Level Estimated
Sun 05:12:00 PM 69.5356 -45.6864 274° West  Level Estimated
Sun 05:13:00 PM 69.5423 -46.0505 273° West  Level Estimated
Sun 05:14:00 PM 69.5481 -46.4148 273° West  Level Estimated
Sun 05:15:00 PM 69.5533 -46.7792 272° West  Level Estimated
Sun 05:16:00 PM 69.5576 -47.1439 272° West  Level Estimated
Sun 05:17:00 PM 69.5612 -47.5087 272° West  Level Estimated
Sun 05:18:00 PM 69.5641 -47.8736 271° West  Level Estimated
Sun 05:19:00 PM 69.5662 -48.2385 271° West  Level Estimated
Sun 05:20:00 PM 69.5675 -48.6036 271° West  Level Estimated
Sun 05:21:00 PM 69.5681 -48.9687 270° West  Level Estimated
Sun 05:22:00 PM 69.5679 -49.3337 270° West  Level Estimated
Sun 05:23:00 PM 69.5669 -49.6988 270° West  Level Estimated
Sun 05:24:00 PM 69.5652 -50.0638 269° West  Level Estimated
Sun 05:25:00 PM 69.5628 -50.4287 269° West  Level Estimated
Sun 05:26:00 PM 69.5595 -50.7936 269° West  Level Estimated
Sun 05:27:00 PM 69.5555 -51.1583 268° West  Level Estimated
Sun 05:28:00 PM 69.5508 -51.5229 268° West  Level Estimated
Sun 05:29:00 PM 69.5452 -51.8872 268° West  Level Estimated
Sun 05:30:00 PM 69.5390 -52.2514 267° West  Level Estimated
Sun 05:31:00 PM 69.5320 -52.6154 267° West  Level Estimated
Sun 05:32:00 PM 69.5242 -52.9791 267° West  Level Estimated
Sun 05:33:00 PM 69.5156 -53.3425 266° West  Level Estimated
Sun 05:34:00 PM 69.5063 -53.7057 266° West  Level Estimated
Sun 05:35:00 PM 69.4963 -54.0685 266° West  Level Estimated
Sun 05:36:00 PM 69.4855 -54.4309 265° West  Level Estimated
Sun 05:37:00 PM 69.4739 -54.7930 265° West  Level Estimated
Sun 05:38:00 PM 69.4616 -55.1547 265° West  Level Estimated
Sun 05:39:00 PM 69.4485 -55.5159 264° West  Level Estimated
Sun 05:40:00 PM 69.4347 -55.8767 264° West  Level Estimated
Sun 05:41:00 PM 69.4202 -56.2370 264° West  Level Estimated
Sun 05:42:00 PM 69.4049 -56.5968 263° West  Level Estimated
Sun 05:43:00 PM 69.3888 -56.9561 263° West  Level Estimated
Sun 05:44:00 PM 69.3721 -57.3149 263° West  Level Estimated
Sun 05:45:00 PM 69.3545 -57.6730 262° West  Level Estimated
Sun 05:46:00 PM 69.3363 -58.0306 262° West  Level Estimated
Sun 05:47:00 PM 69.3173 -58.3876 262° West  Level Estimated
Sun 05:48:00 PM 69.2976 -58.7439 261° West  Level Estimated
Sun 05:49:00 PM 69.2771 -59.0996 261° West  Level Estimated
Sun 05:50:00 PM 69.2559 -59.4546 261° West  Level Estimated
Sun 05:51:00 PM 69.2340 -59.8089 260° West  Level Estimated
Sun 05:52:00 PM 69.2114 -60.1624 260° West  Level Estimated
Sun 05:53:00 PM 69.1880 -60.5152 260° West  Level Estimated
Sun 05:54:00 PM 69.1639 -60.8673 259° West  Level Estimated
Sun 05:55:00 PM 69.1391 -61.2185 259° West  Level Estimated
Sun 05:56:00 PM 69.1136 -61.5690 259° West  Level Estimated
Sun 05:57:00 PM 69.0874 -61.9186 258° West  Level Estimated
Sun 05:58:00 PM 69.0604 -62.2674 258° West  Level Estimated
Sun 05:59:00 PM 69.0328 -62.6153 258° West  Level Estimated
Sun 06:00:00 PM 69.0044 -62.9623 257° West  Level Estimated
Sun 06:01:00 PM 68.9754 -63.3084 257° West  Level Estimated
Sun 06:02:00 PM 68.9447 -63.6647 257° West  Level Estimated
Sun 06:03:00 PM 68.9132 -64.0200 256° West  Level Estimated
Sun 06:04:00 PM 68.8810 -64.3743 256° West  Level Estimated
Sun 06:05:00 PM 68.8489 -64.7188 256° West  Level Estimated
Sun 06:06:00 PM 68.8161 -65.0623 255° West  Level Estimated
Sun 06:07:00 PM 68.7826 -65.4047 255° West  Level Estimated
Sun 06:08:00 PM 68.7485 -65.7462 255° West  Level Estimated
Sun 06:09:00 PM 68.7136 -66.0865 254° West  Level Estimated
Sun 06:10:00 PM 68.6780 -66.4258 254° West  Level Estimated
Sun 06:11:00 PM 68.6418 -66.7640 254° West  Level Estimated
Sun 06:12:00 PM 68.6049 -67.1011 253° West  Level Estimated
Sun 06:13:00 PM 68.5674 -67.4371 253° West  Level Estimated
Sun 06:14:00 PM 68.5291 -67.7720 253° West  Level Estimated
Sun 06:15:00 PM 68.4902 -68.1057 253° West  Level Estimated
Sun 06:16:00 PM 68.4507 -68.4382 252° West  Level Estimated
Sun 06:17:00 PM 68.4104 -68.7696 252° West  Level Estimated
Sun 06:18:00 PM 68.3696 -69.0998 252° West  Level Estimated
Sun 06:19:00 PM 68.3280 -69.4288 251° West  Level Estimated
Sun 06:20:00 PM 68.2859 -69.7566 251° West  Level Estimated
Sun 06:21:00 PM 68.2431 -70.0832 251° West  Level Estimated
Sun 06:21:53 PM 72.6500 -80.5667 249° West 510 587 36,000  Level Edmonton Center
Sun 06:22:00 PM 68.1996 -70.4085 250° West  Level Estimated
Sun 06:22:53 PM 72.6000 -80.9500 247° West 520 598 36,000  Level Edmonton Center
Sun 06:23:00 PM 68.1555 -70.7327 250° West  Level Estimated
Sun 06:23:53 PM 72.5333 -81.3833 243° Southwest 520 598 36,000  Level Edmonton Center
Sun 06:24:00 PM 68.1108 -71.0555 250° West  Level Estimated
Sun 06:24:53 PM 72.4667 -81.8500 245° Southwest 520 598 36,000  Level Edmonton Center
Sun 06:25:00 PM 68.0655 -71.3771 249° West  Level Estimated
Sun 06:25:53 PM 72.4167 -82.2667 249° West 520 598 36,000  Level Edmonton Center
Sun 06:26:00 PM 68.0195 -71.6974 249° West  Level Estimated
Sun 06:26:53 PM 72.3500 -82.7000 243° Southwest 520 598 36,000  Level Edmonton Center
Sun 06:27:00 PM 67.9729 -72.0165 249° West  Level Estimated
Sun 06:27:53 PM 72.2833 -83.1333 243° Southwest 520 598 36,000  Level Edmonton Center
Sun 06:28:53 PM 72.2167 -83.5167 240° Southwest 520 598 36,000  Level Edmonton Center
Sun 06:29:53 PM 72.1500 -83.9333 243° Southwest 520 598 36,000  Level Edmonton Center
Sun 06:30:53 PM 72.0667 -84.3667 238° Southwest 520 598 36,000  Level Edmonton Center
Sun 06:31:53 PM 72.0167 -84.7667 248° West 520 598 36,000  Level Edmonton Center
Sun 06:32:53 PM 71.9333 -85.2000 238° Southwest 520 598 36,000  Level Edmonton Center
Sun 06:33:53 PM 71.8667 -85.6000 242° Southwest 520 598 36,000  Level Edmonton Center
Sun 06:34:53 PM 71.8000 -86.0167 243° Southwest 520 598 36,000  Level Edmonton Center
Sun 06:35:53 PM 71.7167 -86.4333 238° Southwest 520 598 36,000  Level Edmonton Center
Sun 06:36:53 PM 71.6500 -86.7833 239° Southwest 520 598 36,000  Level Edmonton Center
Sun 06:37:53 PM 71.5833 -87.1667 241° Southwest 520 598 36,000  Level Edmonton Center
Sun 06:38:53 PM 71.5000 -87.5833 238° Southwest 520 598 36,000  Level Edmonton Center
Sun 06:39:53 PM 71.4333 -87.9667 241° Southwest 520 598 36,000  Level Edmonton Center
Sun 06:40:53 PM 71.3333 -88.3667 232° Southwest 520 598 36,000  Level Edmonton Center
Sun 06:41:53 PM 71.2667 -88.7500 242° Southwest 520 598 36,000  Level Edmonton Center
Sun 06:42:53 PM 71.2000 -89.1333 242° Southwest 520 598 36,000  Level Edmonton Center
Sun 06:43:53 PM 71.1000 -89.4833 229° Southwest 510 587 36,000  Level Edmonton Center
Sun 06:44:53 PM 71.0333 -89.8500 241° Southwest 510 587 36,000  Level Edmonton Center
Sun 06:45:53 PM 70.9333 -90.1833 228° Southwest 510 587 36,000  Level Edmonton Center
Sun 06:46:53 PM 70.8500 -90.5167 233° Southwest 510 587 36,000  Level Edmonton Center
Sun 06:47:53 PM 70.7667 -90.8333 231° Southwest 510 587 36,000  Level Edmonton Center
Sun 06:50:00 PM 70.5762 -91.4447 227° Southwest  Level FlightAware Approximate
Sun 06:57:00 PM 69.9322 -93.3860 226° Southwest  Level FlightAware Approximate
Sun 06:58:00 PM 69.8385 -93.6535 225° Southwest  Level FlightAware Approximate
Sun 06:59:00 PM 69.7444 -93.9187 224° Southwest  Level FlightAware Approximate
Sun 07:00:00 PM 69.6499 -94.1815 224° Southwest  Level FlightAware Approximate
Sun 07:01:00 PM 69.5551 -94.4419 224° Southwest  Level FlightAware Approximate
Sun 07:02:00 PM 69.4598 -94.7001 224° Southwest  Level FlightAware Approximate
Sun 07:03:00 PM 69.3642 -94.9560 223° Southwest  Level FlightAware Approximate
Sun 07:04:00 PM 69.2682 -95.2096 223° Southwest  Level FlightAware Approximate
Sun 07:05:00 PM 69.1719 -95.4610 223° Southwest  Level FlightAware Approximate
Sun 07:06:00 PM 69.0751 -95.7102 223° Southwest  Level FlightAware Approximate
Sun 07:07:00 PM 68.9780 -95.9571 222° Southwest  Level FlightAware Approximate
Sun 07:08:00 PM 68.8806 -96.2019 222° Southwest  Level FlightAware Approximate
Sun 07:09:00 PM 68.7828 -96.4446 222° Southwest  Level FlightAware Approximate
Sun 07:10:00 PM 68.6847 -96.6851 222° Southwest  Level FlightAware Approximate
Sun 07:11:00 PM 68.5862 -96.9235 222° Southwest  Level FlightAware Approximate
Sun 07:12:00 PM 68.4874 -97.1598 221° Southwest  Level FlightAware Approximate
Sun 07:13:00 PM 68.3883 -97.3941 221° Southwest  Level FlightAware Approximate
Sun 07:14:00 PM 68.2888 -97.6263 221° Southwest  Level FlightAware Approximate
Sun 07:15:00 PM 68.1890 -97.8565 221° Southwest  Level FlightAware Approximate
Sun 07:16:00 PM 68.0889 -98.0847 220° Southwest  Level FlightAware Approximate
Sun 07:17:00 PM 67.9885 -98.3110 220° Southwest  Level FlightAware Approximate
Sun 07:18:00 PM 67.8878 -98.5352 220° Southwest  Level FlightAware Approximate
Sun 07:19:00 PM 67.7868 -98.7576 220° Southwest  Level FlightAware Approximate
Sun 07:20:00 PM 67.6855 -98.9780 220° Southwest  Level FlightAware Approximate
Sun 07:21:00 PM 67.5839 -99.1965 219° Southwest  Level FlightAware Approximate
Sun 07:22:00 PM 67.4820 -99.4132 219° Southwest  Level FlightAware Approximate
Sun 07:23:00 PM 67.3798 -99.6280 219° Southwest  Level FlightAware Approximate
Sun 07:24:00 PM 67.2773 -99.8410 219° Southwest  Level FlightAware Approximate
Sun 07:25:00 PM 67.1738 -100.0562 220° Southwest  Level FlightAware Approximate
Sun 07:26:00 PM 67.0728 -100.2719 220° Southwest  Level FlightAware Approximate
Sun 07:27:00 PM 66.9714 -100.4857 220° Southwest  Level FlightAware Approximate
Sun 07:28:00 PM 66.8698 -100.6978 219° Southwest  Level FlightAware Approximate
Sun 07:29:00 PM 66.7679 -100.9081 219° Southwest  Level FlightAware Approximate
Sun 07:30:00 PM 66.6657 -101.1167 219° Southwest  Level FlightAware Approximate
Sun 07:31:00 PM 66.5632 -101.3235 218° Southwest  Level FlightAware Approximate
Sun 07:32:00 PM 66.4601 -101.5276 218° Southwest  Level FlightAware Approximate
Sun 07:33:00 PM 66.3568 -101.7299 218° Southwest  Level FlightAware Approximate
Sun 07:34:00 PM 66.2532 -101.9306 218° Southwest  Level FlightAware Approximate
Sun 07:35:00 PM 66.1493 -102.1297 218° Southwest  Level FlightAware Approximate
Sun 07:36:00 PM 66.0452 -102.3271 218° Southwest  Level FlightAware Approximate
Sun 07:37:00 PM 65.9408 -102.5230 217° Southwest  Level FlightAware Approximate
Sun 07:38:00 PM 65.8362 -102.7172 217° Southwest  Level FlightAware Approximate
Sun 07:39:00 PM 65.7314 -102.9099 217° Southwest  Level FlightAware Approximate
Sun 07:40:00 PM 65.6263 -103.1010 217° Southwest  Level FlightAware Approximate
Sun 07:41:00 PM 65.5209 -103.2905 217° Southwest  Level FlightAware Approximate
Sun 07:42:00 PM 65.4154 -103.4786 217° Southwest  Level FlightAware Approximate
Sun 07:43:00 PM 65.3096 -103.6651 216° Southwest  Level FlightAware Approximate
Sun 07:44:00 PM 65.2035 -103.8501 216° Southwest  Level FlightAware Approximate
Sun 07:45:00 PM 65.0973 -104.0336 216° Southwest  Level FlightAware Approximate
Sun 07:46:00 PM 64.9908 -104.2157 216° Southwest  Level FlightAware Approximate
Sun 07:47:00 PM 64.8841 -104.3964 216° Southwest  Level FlightAware Approximate
Sun 07:48:00 PM 64.7772 -104.5756 216° Southwest  Level FlightAware Approximate
Sun 07:49:00 PM 64.6700 -104.7534 215° Southwest  Level FlightAware Approximate
Sun 07:50:00 PM 64.5627 -104.9297 215° Southwest  Level FlightAware Approximate
Sun 07:51:00 PM 64.4551 -105.1048 215° Southwest  Level FlightAware Approximate
Sun 07:52:00 PM 64.3474 -105.2784 215° Southwest  Level FlightAware Approximate
Sun 07:53:00 PM 64.2394 -105.4507 215° Southwest  Level FlightAware Approximate
Sun 07:54:00 PM 64.1313 -105.6216 215° Southwest  Level FlightAware Approximate
Sun 07:55:00 PM 64.0229 -105.7912 214° Southwest  Level FlightAware Approximate
Sun 07:56:00 PM 63.9143 -105.9595 214° Southwest  Level FlightAware Approximate
Sun 07:56:20 PM 63.5000 -107.2667 214° Southwest 490 564 36,000  Level Edmonton Center
Sun 07:57:00 PM 63.8056 -106.1265 214° Southwest  Level FlightAware Approximate
Sun 07:57:20 PM 63.3833 -107.4500 215° Southwest 480 552 36,000  Level Edmonton Center
Sun 07:58:00 PM 63.6967 -106.2922 214° Southwest  Level FlightAware Approximate
Sun 07:58:20 PM 63.2833 -107.6000 214° Southwest 490 564 36,000  Level Edmonton Center
Sun 07:59:00 PM 63.5875 -106.4567 214° Southwest  Level FlightAware Approximate
Sun 07:59:20 PM 63.1500 -107.7667 209° Southwest 480 552 36,000  Level Edmonton Center
Sun 08:00:00 PM 63.4782 -106.6199 214° Southwest  Level FlightAware Approximate
Sun 08:00:20 PM 63.0500 -107.9500 220° Southwest 490 564 36,000  Level Edmonton Center
Sun 08:01:00 PM 63.3687 -106.7818 214° Southwest  Level FlightAware Approximate
Sun 08:01:20 PM 62.9333 -108.1167 213° Southwest 490 564 36,000  Level Edmonton Center
Sun 08:02:20 PM 62.8167 -108.2667 210° Southwest 480 552 36,000  Level Edmonton Center
Sun 08:03:20 PM 62.7000 -108.4333 213° Southwest 490 564 36,000 500 Level Edmonton Center
Sun 08:04:20 PM 62.5833 -108.6000 213° Southwest 480 552 37,000 500 Climbing Edmonton Center
Sun 08:05:20 PM 62.4667 -108.7667 213° Southwest 480 552 37,000  Level Edmonton Center
Sun 08:06:20 PM 62.3500 -108.9000 208° Southwest 480 552 37,000  Level Edmonton Center
Sun 08:07:20 PM 62.2333 -109.0667 214° Southwest 480 552 37,000  Level Edmonton Center
Sun 08:08:20 PM 62.1167 -109.2333 214° Southwest 480 552 37,000  Level Edmonton Center
Sun 08:09:20 PM 62.0167 -109.3667 212° Southwest 480 552 37,000  Level Edmonton Center
Sun 08:10:20 PM 61.8833 -109.5333 211° Southwest 480 552 37,000  Level Edmonton Center
Sun 08:11:20 PM 61.7833 -109.6667 212° Southwest 470 541 37,000  Level Edmonton Center
Sun 08:12:20 PM 61.6667 -109.8167 211° Southwest 470 541 37,000  Level Edmonton Center
Sun 08:13:20 PM 61.5667 -109.9500 212° Southwest 470 541 37,000  Level Edmonton Center
Sun 08:14:20 PM 61.4333 -110.1000 208° Southwest 470 541 37,000  Level Edmonton Center
Sun 08:15:20 PM 61.3333 -110.2667 219° Southwest 480 552 37,000  Level Edmonton Center
Sun 08:16:20 PM 61.2167 -110.4333 215° Southwest 470 541 37,000  Level Edmonton Center
Sun 08:17:20 PM 61.1167 -110.5833 216° Southwest 470 541 37,000  Level Edmonton Center
Sun 08:18:20 PM 60.9833 -110.7333 209° Southwest 470 541 37,000  Level Edmonton Center
Sun 08:19:20 PM 60.8833 -110.8500 210° Southwest 470 541 37,000  Level Edmonton Center
Sun 08:20:20 PM 60.7667 -111.0167 215° Southwest 470 541 37,000  Level Edmonton Center
Sun 08:21:20 PM 60.6667 -111.1667 216° Southwest 460 529 37,000  Level Edmonton Center
Sun 08:22:20 PM 60.5500 -111.3167 212° Southwest 470 541 37,000  Level Edmonton Center
Sun 08:23:20 PM 60.4500 -111.4333 210° Southwest 470 541 37,000  Level Edmonton Center
Sun 08:24:20 PM 60.3333 -111.5833 212° Southwest 470 541 37,000  Level Edmonton Center
Sun 08:25:20 PM 60.2333 -111.7333 217° Southwest 470 541 37,000  Level Edmonton Center
Sun 08:26:20 PM 60.1000 -111.8833 209° Southwest 470 541 37,000  Level Edmonton Center
Sun 08:27:20 PM 60.0000 -112.0000 210° Southwest 470 541 37,000  Level Edmonton Center
Sun 08:28:20 PM 59.8667 -112.1000 201° Southwest 470 541 37,000  Level Edmonton Center
Sun 08:29:20 PM 59.7667 -112.2167 210° Southwest 470 541 37,000  Level Edmonton Center
Sun 08:30:20 PM 59.6333 -112.3500 207° Southwest 470 541 37,000  Level Edmonton Center
Sun 08:31:20 PM 59.5000 -112.4667 204° Southwest 470 541 37,000  Level Edmonton Center
Sun 08:32:20 PM 59.4000 -112.5667 207° Southwest 470 541 37,000  Level Edmonton Center
Sun 08:33:20 PM 59.2667 -112.6833 204° Southwest 470 541 37,000  Level Edmonton Center
Sun 08:34:20 PM 59.1500 -112.7833 204° Southwest 460 529 37,000  Level Edmonton Center
Sun 08:35:20 PM 59.0333 -112.8833 204° Southwest 460 529 37,000  Level Edmonton Center
Sun 08:36:20 PM 58.9167 -113.0000 207° Southwest 470 541 37,000 450 Level Edmonton Center
Sun 08:37:20 PM 58.7833 -113.1000 201° Southwest 470 541 37,900 500 Climbing Edmonton Center
Sun 08:38:20 PM 58.6833 -113.2000 207° Southwest 460 529 38,000 50 Climbing Edmonton Center
Sun 08:39:20 PM 58.5500 -113.3000 201° Southwest 450 518 38,000  Level Edmonton Center
Sun 08:40:20 PM 58.4333 -113.4000 204° Southwest 450 518 38,000  Level Edmonton Center
Sun 08:41:20 PM 58.3167 -113.4667 197° South 450 518 38,000  Level Edmonton Center
Sun 08:42:20 PM 58.2000 -113.5833 208° Southwest 450 518 38,000  Level Edmonton Center
Sun 08:43:20 PM 58.1000 -113.6833 208° Southwest 450 518 38,000  Level Edmonton Center
Sun 08:44:20 PM 57.9667 -113.7833 202° Southwest 450 518 38,000  Level Edmonton Center
Sun 08:45:20 PM 57.8667 -113.8833 208° Southwest 450 518 38,000  Level Edmonton Center
Sun 08:46:20 PM 57.7333 -113.9833 202° Southwest 450 518 38,000  Level Edmonton Center
Sun 08:47:20 PM 57.6333 -114.0833 208° Southwest 460 529 38,000  Level Edmonton Center
Sun 08:48:20 PM 57.5000 -114.1667 199° South 460 529 38,000  Level Edmonton Center
Sun 08:49:20 PM 57.3833 -114.2667 205° Southwest 450 518 38,000  Level Edmonton Center
Sun 08:50:20 PM 57.2667 -114.3333 197° South 460 529 38,000  Level Edmonton Center
Sun 08:51:20 PM 57.1500 -114.4333 205° Southwest 460 529 38,000  Level Edmonton Center
Sun 08:52:20 PM 57.0333 -114.5167 201° Southwest 460 529 38,000  Level Edmonton Center
Sun 08:53:20 PM 56.9000 -114.6500 209° Southwest 460 529 38,000  Level Edmonton Center
Sun 08:54:20 PM 56.7833 -114.7167 197° South 460 529 38,000  Level Edmonton Center
Sun 08:55:20 PM 56.6667 -114.8333 209° Southwest 460 529 38,000  Level Edmonton Center
Sun 08:56:20 PM 56.5333 -114.8833 192° South 460 529 38,000  Level Edmonton Center
Sun 08:57:20 PM 56.4333 -114.9833 209° Southwest 470 541 38,000  Level Edmonton Center
Sun 09:03:54 PM 55.6450 -115.5460 209° Southwest 467 537 38,000  Level FlightAware ADS-B
Sun 09:04:29 PM 55.5740 -115.5970 202° Southwest 468 539 38,000  Level FlightAware ADS-B
Sun 09:05:04 PM 55.5040 -115.6470 202° Southwest 469 540 38,000  Level FlightAware ADS-B
Sun 09:05:44 PM 55.4200 -115.7060 202° Southwest 470 541 38,000  Level FlightAware ADS-B
Sun 09:06:20 PM 55.3490 -115.7560 202° Southwest 470 541 38,000  Level FlightAware ADS-B
Sun 09:06:59 PM 55.2670 -115.8140 202° Southwest 470 541 38,000  Level FlightAware ADS-B
Sun 09:07:34 PM 55.1950 -115.8650 202° Southwest 470 541 38,000  Level FlightAware ADS-B
Sun 09:08:04 PM 55.1340 -115.9070 201° Southwest 470 541 38,000  Level FlightAware ADS-B
Sun 09:08:44 PM 55.0530 -115.9640 202° Southwest 471 542 38,000  Level FlightAware ADS-B
Sun 09:09:14 PM 54.9890 -116.0080 202° Southwest 470 541 38,000  Level FlightAware ADS-B
Sun 09:09:51 PM 54.9200 -116.0590 203° Southwest 475 547 38,000  Level FlightAware ADS-B
Sun 09:10:24 PM 54.8500 -116.1130 204° Southwest 475 547 38,000  Level FlightAware ADS-B
Sun 09:11:04 PM 54.7700 -116.1740 204° Southwest 476 548 38,000  Level FlightAware ADS-B
Sun 09:11:34 PM 54.7100 -116.2190 203° Southwest 476 548 38,000  Level FlightAware ADS-B
Sun 09:12:16 PM 54.6290 -116.2790 203° Southwest 477 549 38,000  Level FlightAware ADS-B
Sun 09:12:54 PM 54.5480 -116.3390 203° Southwest 475 547 38,000  Level FlightAware ADS-B
Sun 09:13:29 PM 54.4770 -116.3920 203° Southwest 472 543 38,000  Level FlightAware ADS-B
Sun 09:14:04 PM 54.4060 -116.4430 203° Southwest 475 547 38,000  Level FlightAware ADS-B
Sun 09:14:39 PM 54.3340 -116.4960 203° Southwest 474 545 38,000  Level FlightAware ADS-B
Sun 09:15:14 PM 54.2630 -116.5480 203° Southwest 473 544 38,000  Level FlightAware ADS-B
Sun 09:15:54 PM 54.1810 -116.6070 203° Southwest 472 543 38,000  Level FlightAware ADS-B
Sun 09:16:29 PM 54.1100 -116.6590 203° Southwest 469 540 38,000  Level FlightAware ADS-B
Sun 09:17:09 PM 54.0300 -116.7170 203° Southwest 474 545 38,000  Level FlightAware ADS-B
Sun 09:17:39 PM 53.9690 -116.7610 203° Southwest 471 542 38,000  Level FlightAware ADS-B
Sun 09:18:14 PM 53.8990 -116.8110 203° Southwest 471 542 38,000  Level FlightAware ADS-B
Sun 09:18:49 PM 53.8300 -116.8610 203° Southwest 468 539 38,000  Level FlightAware ADS-B
Sun 09:19:29 PM 53.7490 -116.9180 203° Southwest 458 527 38,000  Level FlightAware ADS-B
Sun 09:19:59 PM 53.6910 -116.9590 203° Southwest 453 521 38,000  Level FlightAware ADS-B
Sun 09:20:34 PM 53.6220 -117.0070 202° Southwest 455 524 38,000  Level FlightAware ADS-B
Sun 09:21:14 PM 53.5450 -117.0620 203° Southwest 457 526 38,000  Level FlightAware ADS-B
Sun 09:21:44 PM 53.4870 -117.1020 202° Southwest 452 520 38,000  Level FlightAware ADS-B
Sun 09:22:19 PM 53.4170 -117.1510 203° Southwest 456 525 38,000  Level FlightAware ADS-B
Sun 09:22:54 PM 53.3480 -117.2000 203° Southwest 468 539 38,000  Level FlightAware ADS-B
Sun 09:23:29 PM 53.2790 -117.2480 203° Southwest 473 544 38,000  Level FlightAware ADS-B
Sun 09:24:04 PM 53.2090 -117.2960 202° Southwest 473 544 38,000  Level FlightAware ADS-B
Sun 09:24:44 PM 53.1260 -117.3530 202° Southwest 468 539 38,000  Level FlightAware ADS-B
Sun 09:25:14 PM 53.0670 -117.3930 202° Southwest 468 539 38,000  Level FlightAware ADS-B
Sun 09:25:49 PM 52.9970 -117.4410 202° Southwest 468 539 38,000  Level FlightAware ADS-B
Sun 09:26:25 PM 52.9290 -117.4880 203° Southwest 456 525 38,000  Level FlightAware ADS-B
Sun 09:27:04 PM 52.8480 -117.5430 202° Southwest 454 522 38,000  Level FlightAware ADS-B
Sun 09:27:34 PM 52.7890 -117.5820 202° Southwest 454 522 38,000  Level FlightAware ADS-B
Sun 09:28:09 PM 52.7200 -117.6290 202° Southwest 454 522 38,000  Level FlightAware ADS-B
Sun 09:28:44 PM 52.6510 -117.6760 202° Southwest 455 524 38,000  Level FlightAware ADS-B
Sun 09:29:24 PM 52.5710 -117.7290 202° Southwest 455 524 38,000  Level FlightAware ADS-B
Sun 09:29:55 PM 52.5130 -117.7680 202° Southwest 454 522 38,000  Level FlightAware ADS-B
Sun 09:30:29 PM 52.4440 -117.8140 202° Southwest 451 519 38,000  Level FlightAware ADS-B
Sun 09:31:09 PM 52.3670 -117.8650 202° Southwest 451 519 38,000  Level FlightAware ADS-B
Sun 09:31:39 PM 52.3060 -117.9050 202° Southwest 451 519 38,000  Level FlightAware ADS-B
Sun 09:32:24 PM 52.2240 -117.9590 202° Southwest 452 520 38,000  Level FlightAware ADS-B
Sun 09:33:00 PM 52.1450 -118.0110 202° Southwest 472 543 38,000  Level FlightAware ADS-B
Sun 09:33:35 PM 52.0840 -118.0500 201° Southwest 466 536 38,000  Level FlightAware ADS-B
Sun 09:34:24 PM 51.9760 -118.1210 202° Southwest 471 542 38,000  Level FlightAware ADS-B
Sun 09:34:54 PM 51.9150 -118.1600 202° Southwest 463 533 38,000  Level FlightAware ADS-B
Sun 09:35:30 PM 51.8430 -118.2000 199° South 471 542 38,000  Level FlightAware ADS-B
Sun 09:36:09 PM 51.7580 -118.2390 196° South 464 534 38,000  Level FlightAware ADS-B
Sun 09:36:44 PM 51.6860 -118.2700 195° South 466 536 38,000  Level FlightAware ADS-B
Sun 09:37:19 PM 51.6120 -118.3000 194° South 466 536 38,000  Level FlightAware ADS-B
Sun 09:38:00 PM 51.5280 -118.3350 195° South 465 535 38,000  Level FlightAware ADS-B
Sun 09:38:34 PM 51.4520 -118.3670 195° South 464 534 38,000  Level FlightAware ADS-B
Sun 09:39:14 PM 51.3690 -118.4010 194° South 468 539 38,000  Level FlightAware ADS-B
Sun 09:39:44 PM 51.3040 -118.4280 195° South 466 536 38,000  Level FlightAware ADS-B
Sun 09:40:19 PM 51.2320 -118.4590 195° South 465 535 38,000  Level FlightAware ADS-B
Sun 09:40:54 PM 51.1600 -118.4890 195° South 465 535 38,000  Level FlightAware ADS-B
Sun 09:41:24 PM 51.0960 -118.5150 194° South 464 534 38,000  Level FlightAware ADS-B
Sun 09:42:04 PM 51.0140 -118.5490 195° South 463 533 38,000  Level FlightAware ADS-B
Sun 09:42:52 PM 50.9500 -118.5760 195° South 463 533 38,000  Level FlightAware ADS-B
Sun 09:43:27 PM 50.8480 -118.6180 195° South 462 532 38,000  Level FlightAware ADS-B
Sun 09:44:02 PM 50.7740 -118.6480 194° South 459 528 38,000  Level FlightAware ADS-B
Sun 09:44:37 PM 50.6990 -118.6790 195° South 459 528 38,000  Level FlightAware ADS-B
Sun 09:45:15 PM 50.6190 -118.7110 194° South 460 529 38,000  Level FlightAware ADS-B
Sun 09:45:51 PM 50.5450 -118.7410 194° South 459 528 38,000  Level FlightAware ADS-B
Sun 09:46:27 PM 50.4710 -118.7710 194° South 456 525 38,000  Level FlightAware ADS-B
Sun 09:46:59 PM 50.4050 -118.7980 195° South 456 525 38,000  Level FlightAware ADS-B
Sun 09:47:37 PM 50.3290 -118.8290 195° South 459 528 38,000  Level FlightAware ADS-B
Sun 09:48:09 PM 50.2620 -118.8560 194° South 459 528 38,000  Level FlightAware ADS-B
Sun 09:48:45 PM 50.1890 -118.8850 194° South 458 527 38,000  Level FlightAware ADS-B
Sun 09:49:21 PM 50.1150 -118.9150 195° South 457 526 38,000  Level FlightAware ADS-B
Sun 09:49:58 PM 50.0400 -118.9450 194° South 455 524 38,000  Level FlightAware ADS-B
Sun 09:50:29 PM 49.9750 -118.9710 194° South 454 522 38,000  Level FlightAware ADS-B
Sun 09:51:05 PM 49.9050 -118.9990 194° South 455 524 38,000  Level FlightAware ADS-B
Sun 09:51:37 PM 49.8390 -119.0250 194° South 454 522 38,000  Level FlightAware ADS-B
Sun 09:52:12 PM 49.7700 -119.0520 194° South 449 517 38,000  Level FlightAware ADS-B
Sun 09:52:52 PM 49.6880 -119.0840 194° South 448 516 38,000  Level FlightAware ADS-B
Sun 09:53:27 PM 49.6240 -119.1090 194° South 446 513 38,000  Level FlightAware ADS-B
Sun 09:53:57 PM 49.5590 -119.1350 195° South 445 512 38,000  Level FlightAware ADS-B
Sun 09:54:32 PM 49.4900 -119.1610 194° South 446 513 38,000  Level FlightAware ADS-B
Sun 09:55:07 PM 49.4190 -119.1890 194° South 447 514 38,000  Level FlightAware ADS-B
Sun 09:55:42 PM 49.3490 -119.2160 194° South 444 511 38,000  Level FlightAware ADS-B
Sun 09:56:22 PM 49.2710 -119.2460 194° South 445 512 38,000  Level FlightAware ADS-B
Sun 09:56:57 PM 49.1990 -119.2740 194° South 446 513 38,000  Level FlightAware ADS-B
Sun 09:57:27 PM 49.1390 -119.2970 194° South 449 517 38,000  Level FlightAware ADS-B
Sun 09:58:01 PM 49.0696 -119.3230 194° South 450 518 38,000  Level FlightAware ADS-B
Sun 09:58:37 PM 48.9968 -119.3510 194° South 450 518 38,000  Level FlightAware ADS-B
Sun 09:59:07 PM 48.9352 -119.3750 194° South 449 517 38,000  Level FlightAware ADS-B
Sun 09:59:38 PM 48.8746 -119.3980 194° South 448 516 38,000  Level FlightAware ADS-B
Sun 10:00:08 PM 48.8130 -119.4210 194° South 447 514 38,000  Level FlightAware ADS-B
Sun 10:00:39 PM 48.7511 -119.4450 194° South 446 513 38,000  Level FlightAware ADS-B
Sun 10:01:10 PM 48.6901 -119.4680 194° South 445 512 38,000  Level FlightAware ADS-B
Sun 10:01:40 PM 48.6293 -119.4900 193° South 447 514 38,000  Level FlightAware ADS-B
Sun 10:02:11 PM 48.5681 -119.5130 194° South 448 516 38,000  Level FlightAware ADS-B
Sun 10:02:41 PM 48.5074 -119.5360 194° South 449 517 38,000  Level FlightAware ADS-B
Sun 10:03:15 PM 48.4389 -119.5620 194° South 449 517 38,000  Level FlightAware ADS-B
Sun 10:03:32 PM 48.4050 -119.5743 194° South 448 516 38,000  Level FlightAware ADS-B
Sun 10:03:46 PM 48.3771 -119.5850 194° South 448 516 38,000  Level FlightAware ADS-B
Sun 10:04:06 PM 48.3371 -119.5996 194° South 448 516 38,000  Level FlightAware ADS-B
Sun 10:04:16 PM 48.3156 -119.6080 195° South 447 514 38,000  Level FlightAware ADS-B
Sun 10:04:47 PM 48.2545 -119.6300 193° South 447 514 38,000  Level FlightAware ADS-B
Sun 10:05:18 PM 48.1914 -119.6540 194° South 445 512 38,000  Level FlightAware ADS-B
Sun 10:05:49 PM 48.1312 -119.6760 194° South 445 512 38,000  Level FlightAware ADS-B
Sun 10:06:22 PM 48.0658 -119.7000 194° South 438 504 38,000  Level FlightAware ADS-B
Sun 10:06:57 PM 47.9961 -119.7250 193° South 435 501 38,000  Level FlightAware ADS-B
Sun 10:07:27 PM 47.9377 -119.7470 194° South 435 501 38,000  Level FlightAware ADS-B
Sun 10:07:54 PM 47.8853 -119.7658 194° South 432 497 38,000  Level FlightAware ADS-B
Sun 10:07:58 PM 47.8786 -119.7680 192° South 432 497 38,000  Level FlightAware ADS-B
Sun 10:08:25 PM 47.8260 -119.7875 194° South 431 496 38,000  Level FlightAware ADS-B
Sun 10:08:40 PM 47.7972 -119.7980 194° South 430 495 38,000  Level FlightAware ADS-B
Sun 10:08:56 PM 47.7662 -119.8092 194° South 429 494 38,000  Level FlightAware ADS-B
Sun 10:09:11 PM 47.7377 -119.8190 193° South 429 494 38,000  Level FlightAware ADS-B
Sun 10:09:26 PM 47.7089 -119.8298 194° South 427 491 38,000  Level FlightAware ADS-B
Sun 10:10:00 PM 47.6424 -119.8540 194° South 426 490 38,000  Level FlightAware ADS-B
Sun 10:10:04 PM 47.6365 -119.8559 192° South 427 491 38,000  Level FlightAware ADS-B
Sun 10:10:31 PM 47.5844 -119.8750 194° South 426 490 38,000  Level FlightAware ADS-B
Sun 10:11:01 PM 47.5272 -119.8950 193° South 421 484 38,000  Level FlightAware ADS-B
Sun 10:11:31 PM 47.4703 -119.9160 194° South 418 481 38,000  Level FlightAware ADS-B
Sun 10:12:01 PM 47.4138 -119.9360 193° South 418 481 38,000  Level FlightAware ADS-B
Sun 10:12:32 PM 47.3564 -119.9570 194° South 421 484 38,000  Level FlightAware ADS-B
Sun 10:13:02 PM 47.2992 -119.9770 193° South 422 486 38,000  Level FlightAware ADS-B
Sun 10:13:32 PM 47.2425 -119.9970 193° South 422 486 38,000  Level FlightAware ADS-B
Sun 10:14:03 PM 47.1829 -120.0180 193° South 427 491 38,000  Level FlightAware ADS-B
Sun 10:14:33 PM 47.1251 -120.0390 194° South 429 494 38,000  Level FlightAware ADS-B
Sun 10:15:03 PM 47.0671 -120.0590 193° South 426 490 38,000  Level FlightAware ADS-B
Sun 10:15:34 PM 47.0094 -120.0800 194° South 423 487 38,000  Level FlightAware ADS-B
Sun 10:16:04 PM 46.9515 -120.1000 193° South 416 479 38,000  Level FlightAware ADS-B
Sun 10:16:35 PM 46.8947 -120.1200 194° South 411 473 38,000 295 Level FlightAware ADS-B
Sun 10:17:05 PM 46.8397 -120.1390 193° South 404 465 38,300 885 Climbing FlightAware ADS-B
Sun 10:17:36 PM 46.7842 -120.1580 193° South 402 463 38,900 689 Climbing FlightAware ADS-B
Sun 10:18:06 PM 46.7279 -120.1780 194° South 408 470 39,000 95 Climbing FlightAware ADS-B
Sun 10:18:39 PM 46.6693 -120.1990 194° South 407 468 39,000  Level FlightAware ADS-B
Sun 10:19:09 PM 46.6133 -120.2180 193° South 408 470 39,000  Level FlightAware ADS-B
Sun 10:19:40 PM 46.5564 -120.2380 194° South 408 470 39,000  Level FlightAware ADS-B
Sun 10:20:26 PM 46.4723 -120.2670 193° South 407 468 39,000  Level FlightAware ADS-B
Sun 10:21:13 PM 46.3851 -120.2970 193° South 408 470 39,000  Level FlightAware ADS-B
Sun 10:21:44 PM 46.3292 -120.3160 193° South 413 475 39,000  Level FlightAware ADS-B
Sun 10:22:16 PM 46.2730 -120.3350 193° South 409 471 39,000  Level FlightAware ADS-B
Sun 10:22:46 PM 46.2159 -120.3550 194° South 412 474 39,000  Level FlightAware ADS-B
Sun 10:23:29 PM 46.1600 -120.3730 193° South 399 459 39,000  Level FlightAware ADS-B
Sun 10:24:05 PM 46.0714 -120.4040 194° South 407 468 39,000  Level FlightAware ADS-B
Sun 10:24:42 PM 46.0490 -120.4100 191° South 399 459 39,000  Level FlightAware ADS-B
Sun 10:25:26 PM 45.9218 -120.4550 194° South 419 482 39,000  Level FlightAware ADS-B
Sun 10:26:30 PM 45.8830 -120.4650 190° South 399 459 39,000  Level FlightAware ADS-B
Sun 10:27:06 PM 45.8280 -120.4830 193° South 399 459 39,000  Level FlightAware ADS-B
Sun 10:27:43 PM 45.7720 -120.5020 193° South 399 459 39,000  Level FlightAware ADS-B
Sun 10:28:19 PM 45.6030 -120.5610 194° South 424 488 39,000  Level FlightAware ADS-B
Sun 10:28:56 PM 45.5430 -120.5810 193° South 424 488 39,000  Level FlightAware ADS-B
Sun 10:29:33 PM 45.4830 -120.6010 193° South 424 488 39,000  Level FlightAware ADS-B
Sun 10:30:09 PM 45.4240 -120.6200 193° South 424 488 39,000  Level FlightAware ADS-B
Sun 10:30:46 PM 45.3640 -120.6400 193° South 424 488 39,000  Level FlightAware ADS-B
Sun 10:31:21 PM 45.2460 -120.6800 193° South 426 490 39,000  Level FlightAware ADS-B
Sun 10:32:06 PM 45.1640 -120.7070 193° South 428 493 39,000  Level FlightAware ADS-B
Sun 10:32:41 PM 45.0900 -120.7320 193° South 433 498 39,000  Level FlightAware ADS-B
Sun 10:33:16 PM 45.0220 -120.7540 193° South 436 502 39,000  Level FlightAware ADS-B
Sun 10:33:53 PM 44.9490 -120.7780 193° South 438 504 39,000  Level FlightAware ADS-B
Sun 10:34:29 PM 44.8760 -120.8010 193° South 439 505 39,000  Level FlightAware ADS-B
Sun 10:34:59 PM 44.8170 -120.8200 193° South 441 507 39,000  Level FlightAware ADS-B
Sun 10:35:37 PM 44.7420 -120.8450 193° South 440 506 39,000  Level FlightAware ADS-B
Sun 10:36:11 PM 44.6760 -120.8660 193° South 441 507 39,000  Level FlightAware ADS-B
Sun 10:36:46 PM 44.6120 -120.8870 193° South 441 507 39,000  Level FlightAware ADS-B
Sun 10:37:21 PM 44.5340 -120.9120 193° South 443 510 39,000  Level FlightAware ADS-B
Sun 10:37:56 PM 44.4670 -120.9340 193° South 444 511 39,000  Level FlightAware ADS-B
Sun 10:38:51 PM 44.3650 -120.9660 193° South 444 511 39,000  Level FlightAware ADS-B
Sun 10:39:27 PM 44.2820 -120.9930 193° South 445 512 39,000  Level FlightAware ADS-B
Sun 10:40:04 PM 44.2120 -121.0150 193° South 440 506 39,000  Level FlightAware ADS-B
Sun 10:40:37 PM 44.1430 -121.0370 193° South 439 505 39,000  Level FlightAware ADS-B
Sun 10:41:13 PM 44.0730 -121.0590 193° South 442 509 39,000  Level FlightAware ADS-B
Sun 10:41:47 PM 44.0030 -121.0810 193° South 446 513 39,000  Level FlightAware ADS-B
Sun 10:42:23 PM 43.9330 -121.1030 193° South 444 511 39,000  Level FlightAware ADS-B
Sun 10:43:12 PM 43.8420 -121.1310 193° South 446 513 39,000  Level FlightAware ADS-B
Sun 10:43:48 PM 43.7800 -121.1490 192° South 446 513 39,000  Level FlightAware ADS-B
Sun 10:44:27 PM 43.6810 -121.1820 194° South 454 522 39,000  Level FlightAware ADS-B
Sun 10:45:40 PM 43.6160 -121.2010 192° South 454 522 39,000  Level FlightAware ADS-B
Sun 10:46:16 PM 43.5530 -121.2190 192° South 454 522 39,000  Level FlightAware ADS-B
Sun 10:46:52 PM 43.4900 -121.2380 192° South 454 522 39,000  Level FlightAware ADS-B
Sun 10:47:28 PM 43.4280 -121.2560 192° South 454 522 39,000  Level FlightAware ADS-B
Sun 10:48:02 PM 43.2590 -121.3130 194° South 39,000  Level FlightAware ADS-B
Sun 10:48:41 PM 43.1710 -121.3400 193° South 454 522 39,000  Level FlightAware ADS-B
Sun 10:49:12 PM 43.1090 -121.3590 193° South 457 526 39,000  Level FlightAware ADS-B
Sun 10:49:48 PM 43.0350 -121.3810 192° South 459 528 39,000  Level FlightAware ADS-B
Sun 10:50:24 PM 42.9580 -121.4050 193° South 461 531 39,000  Level FlightAware ADS-B
Sun 10:51:00 PM 42.8890 -121.4260 193° South 461 531 39,000  Level FlightAware ADS-B
Sun 10:51:31 PM 42.8210 -121.4460 192° South 458 527 39,000  Level FlightAware ADS-B
Sun 10:52:13 PM 42.7390 -121.4710 193° South 457 526 39,000  Level FlightAware ADS-B
Sun 10:52:53 PM 42.6520 -121.4980 193° South 459 528 39,000  Level FlightAware ADS-B
Sun 10:53:29 PM 42.5760 -121.5200 192° South 459 528 39,000  Level FlightAware ADS-B
Sun 10:53:59 PM 42.5140 -121.5390 193° South 458 527 39,000  Level FlightAware ADS-B
Sun 10:54:36 PM 42.5140 -121.5390 193° South 460 529 39,000  Level FlightAware ADS-B
Sun 10:55:12 PM 42.3660 -121.5830 192° South 465 535 39,000  Level FlightAware ADS-B
Sun 10:55:46 PM 42.2940 -121.6050 193° South 464 534 39,000  Level FlightAware ADS-B
Sun 10:56:22 PM 42.2170 -121.6280 192° South 464 534 39,000  Level FlightAware ADS-B
Sun 10:57:03 PM 42.2100 -121.6300 192° South 464 534 39,000  Level FlightAware ADS-B
Sun 10:57:39 PM 42.0560 -121.6760 193° South 468 539 39,000  Level FlightAware ADS-B
Sun 10:58:15 PM 41.9790 -121.6980 192° South 470 541 39,000  Level FlightAware ADS-B
Sun 10:58:57 PM 41.8920 -121.7240 193° South 478 550 39,000  Level FlightAware ADS-B
Sun 10:59:29 PM 41.8180 -121.7450 192° South 482 555 39,000  Level FlightAware ADS-B
Sun 11:00:18 PM 41.7180 -121.7750 193° South 478 550 39,000  Level FlightAware ADS-B
Sun 11:00:54 PM 41.6340 -121.7990 192° South 476 548 39,000  Level FlightAware ADS-B
Sun 11:01:30 PM 41.5570 -121.8220 193° South 476 548 39,000  Level FlightAware ADS-B
Sun 11:02:08 PM 41.4740 -121.8480 193° South 479 551 39,000  Level FlightAware ADS-B
Sun 11:02:37 PM 41.4140 -121.8670 193° South 477 549 39,000  Level FlightAware ADS-B
Sun 11:03:13 PM 41.3380 -121.8910 193° South 471 542 39,000  Level FlightAware ADS-B
Sun 11:03:53 PM 41.2500 -121.9190 193° South 475 547 39,000  Level FlightAware ADS-B
Sun 11:04:23 PM 41.1850 -121.9390 193° South 477 549 39,000  Level FlightAware ADS-B
Sun 11:05:02 PM 41.1040 -121.9650 194° South 480 552 39,000  Level FlightAware ADS-B
Sun 11:05:42 PM 41.0181 -121.9916 193° South 481 554 39,000  Level FlightAware ADS-B
Sun 11:06:24 PM 40.9187 -122.0223 193° South 481 554 39,000  Level FlightAware ADS-B
Sun 11:06:54 PM 40.8549 -122.0420 193° South 482 555 39,000  Level FlightAware ADS-B
Sun 11:07:24 PM 40.7962 -122.0602 193° South 481 554 39,000  Level FlightAware ADS-B
Sun 11:08:04 PM 40.7040 -122.0887 193° South 479 551 39,000  Level FlightAware ADS-B
Sun 11:08:34 PM 40.6378 -122.1091 193° South 477 549 39,000  Level FlightAware ADS-B
Sun 11:09:20 PM 40.5440 -122.1381 193° South 476 548 39,000  Level FlightAware ADS-B
Sun 11:09:50 PM 40.4761 -122.1590 193° South 476 548 39,000  Level FlightAware ADS-B
Sun 11:10:36 PM 40.3780 -122.1890 193° South 478 550 39,000  Level FlightAware ADS-B
Sun 11:11:06 PM 40.3159 -122.2079 193° South 480 552 39,000  Level FlightAware ADS-B
Sun 11:11:48 PM 40.2217 -122.2366 193° South 481 554 39,000  Level FlightAware ADS-B
Sun 11:12:18 PM 40.1576 -122.2561 193° South 482 555 39,000  Level FlightAware ADS-B
Sun 11:13:00 PM 40.0665 -122.2837 193° South 480 552 39,000  Level FlightAware ADS-B
Sun 11:13:30 PM 40.0037 -122.3027 193° South 478 550 39,000  Level FlightAware ADS-B
Sun 11:14:04 PM 39.9285 -122.3254 193° South 474 545 39,000  Level FlightAware ADS-B
Sun 11:14:48 PM 39.8360 -122.3530 193° South 470 541 39,000  Level FlightAware ADS-B
Sun 11:15:24 PM 39.7590 -122.3760 193° South 466 536 39,000  Level FlightAware ADS-B
Sun 11:16:00 PM 39.6830 -122.3990 193° South 466 536 39,000  Level FlightAware ADS-B
Sun 11:16:32 PM 39.6160 -122.4190 193° South 468 539 39,000  Level FlightAware ADS-B
Sun 11:17:10 PM 39.5400 -122.4420 193° South 469 540 39,000  Level FlightAware ADS-B
Sun 11:17:45 PM 39.4630 -122.4650 193° South 468 539 39,000  Level FlightAware ADS-B
Sun 11:18:17 PM 39.3950 -122.4850 193° South 466 536 39,000  Level FlightAware ADS-B
Sun 11:18:53 PM 39.3180 -122.5080 193° South 465 535 39,000  Level FlightAware ADS-B
Sun 11:19:29 PM 39.2420 -122.5300 193° South 465 535 39,000  Level FlightAware ADS-B
Sun 11:20:05 PM 39.1680 -122.5520 193° South 468 539 39,000 -176 Level FlightAware ADS-B
Sun 11:20:37 PM 39.0980 -122.5730 193° South 474 545 38,800 -1,200 Descending FlightAware ADS-B
Sun 11:21:15 PM 39.0160 -122.5970 193° South 481 554 37,600 -1,946 Descending FlightAware ADS-B
Sun 11:21:51 PM 38.9390 -122.6190 193° South 488 562 36,400 -1,886 Descending FlightAware ADS-B
Sun 11:22:25 PM 38.8630 -122.6410 193° South 492 566 35,400 -1,714 Descending FlightAware ADS-B
Sun 11:23:01 PM 38.7840 -122.6650 193° South 493 567 34,400 -1,765 Descending FlightAware ADS-B
Sun 11:23:33 PM 38.7130 -122.6850 192° South 483 556 33,400 -2,735 Descending FlightAware ADS-B
Sun 11:24:09 PM 38.6340 -122.7080 193° South 485 558 31,300 -3,833 Descending FlightAware ADS-B
Sun 11:24:45 PM 38.5560 -122.7310 193° South 491 565 28,800 -4,235 Descending FlightAware ADS-B
Sun 11:25:17 PM 38.4830 -122.7520 193° South 490 564 26,500 -3,618 Descending FlightAware ADS-B
Sun 11:25:53 PM 38.4070 -122.7740 193° South 472 543 24,700 -3,162 Descending FlightAware ADS-B
Sun 11:26:31 PM 38.3270 -122.7970 193° South 454 522 22,600 -3,127 Descending FlightAware ADS-B
Sun 11:27:04 PM 38.2670 -122.8140 193° South 446 513 21,000 -2,903 Descending FlightAware ADS-B
Sun 11:27:33 PM 38.2130 -122.8290 192° South 433 498 19,600 -3,171 Descending FlightAware ADS-B
Sun 11:28:14 PM 38.1240 -122.8540 192° South 418 481 17,300 -3,222 Descending FlightAware ADS-B
Sun 11:28:27 PM 38.1000 -122.8550 182° South 423 487 16,700 -2,069 Descending FlightAware ADS-B
Sun 11:28:43 PM 38.0690 -122.8460 167° South 419 482 16,300 -1,071 Descending FlightAware ADS-B
Sun 11:28:55 PM 38.0480 -122.8320 152° Southeast 413 475 16,200 -480 Descending FlightAware ADS-B
Sun 11:29:33 PM 37.9950 -122.7770 141° Southeast 377 434 15,900 -771 Descending FlightAware ADS-B
Sun 11:30:05 PM 37.9550 -122.7330 139° Southeast 360 414 15,300 -1,457 Descending FlightAware ADS-B
Sun 11:30:43 PM 37.9060 -122.6800 140° Southeast 357 411 14,200 -1,765 Descending FlightAware ADS-B
Sun 11:31:13 PM 37.8690 -122.6400 140° Southeast 354 407 13,300 -1,385 Descending FlightAware ADS-B
Sun 11:31:48 PM 37.8270 -122.5950 140° Southeast 338 389 12,700 -800 Descending FlightAware ADS-B
Sun 11:32:28 PM 37.7800 -122.5450 140° Southeast 309 356 12,300 -577 Descending FlightAware ADS-B
Sun 11:32:40 PM 37.7664 -122.5300 139° Southeast 302 348 12,200 -824 Descending FlightAware ADS-B
Sun 11:33:19 PM 37.7263 -122.4880 140° Southeast 288 331 11,600 -1,043 Descending FlightAware ADS-B
Sun 11:33:49 PM 37.6958 -122.4550 139° Southeast 287 330 11,000 -689 Descending FlightAware ADS-B
Sun 11:34:20 PM 37.6642 -122.4210 140° Southeast 290 334 10,900 -95 Descending FlightAware ADS-B
Sun 11:34:52 PM 37.6307 -122.3860 140° Southeast 291 335 10,900 -190 Level FlightAware ADS-B
Sun 11:35:23 PM 37.5988 -122.3540 142° Southeast 284 327 10,700 -787 Descending FlightAware ADS-B
Sun 11:35:53 PM 37.5651 -122.3290 150° Southeast 279 321 10,100 -1,200 Descending FlightAware ADS-B
Sun 11:36:08 PM 37.5482 -122.3170 151° Southeast 275 316 9,800 -1,161 Descending FlightAware ADS-B
Sun 11:36:24 PM 37.5312 -122.3040 149° Southeast 274 315 9,500 -1,143 Descending FlightAware ADS-B
Sun 11:36:29 PM 37.5255 -122.3000 151° Southeast 273 314 9,400 -1,200 Descending FlightAware ADS-B
Sun 11:36:34 PM 37.5203 -122.2970 155° Southeast 272 313 9,300 -1,333 Descending FlightAware ADS-B
Sun 11:36:38 PM 37.5156 -122.2940 153° Southeast 269 310 9,200 -1,385 Descending FlightAware ADS-B
Sun 11:36:47 PM 37.5049 -122.2920 172° South 261 300 9,000 -1,385 Descending FlightAware ADS-B
Sun 11:36:51 PM 37.5000 -122.2920 180° South 257 296 8,900 -1,636 Descending FlightAware ADS-B
Sun 11:36:58 PM 37.4915 -122.2930 185° South 254 292 8,700 -1,440 Descending FlightAware ADS-B
Sun 11:37:16 PM 37.4710 -122.2980 191° South 253 291 8,300 -1,241 Descending FlightAware ADS-B
Sun 11:37:27 PM 37.4577 -122.3010 190° South 255 293 8,100 -1,125 Descending FlightAware ADS-B
Sun 11:37:32 PM 37.4523 -122.3010 180° South 257 296 8,000 -1,200 Descending FlightAware ADS-B
Sun 11:37:37 PM 37.4460 -122.3000 173° South 261 300 7,900 -750 Descending FlightAware ADS-B
Sun 11:37:40 PM 37.4423 -122.2990 168° South 265 305 7,900  Level FlightAware ADS-B
Sun 11:37:43 PM 37.4385 -122.2980 168° South 268 308 7,900  Level FlightAware ADS-B
Sun 11:37:47 PM 37.4349 -122.2950 147° Southeast 272 313 7,900  Level FlightAware ADS-B
Sun 11:37:51 PM 37.4298 -122.2910 148° Southeast 278 320 7,900  Level FlightAware ADS-B
Sun 11:37:55 PM 37.4264 -122.2880 145° Southeast 280 322 7,900 -857 Level FlightAware ADS-B
Sun 11:37:58 PM 37.4231 -122.2830 130° Southeast 284 327 7,800 -750 Descending FlightAware ADS-B
Sun 11:38:03 PM 37.4193 -122.2770 129° Southeast 287 330 7,800 -923 Level FlightAware ADS-B
Sun 11:38:11 PM 37.4142 -122.2650 118° Southeast 287 330 7,600 -1,385 Descending FlightAware ADS-B
Sun 11:38:16 PM 37.4114 -122.2570 114° Southeast 287 330 7,500 -1,143 Descending FlightAware ADS-B
Sun 11:38:32 PM 37.4033 -122.2330 113° Southeast 285 328 7,200 -1,125 Descending FlightAware ADS-B
Sun 11:38:48 PM 37.3951 -122.2080 112° Southeast 282 325 6,900 -1,125 Descending FlightAware ADS-B
Sun 11:39:04 PM 37.3871 -122.1850 114° Southeast 280 322 6,600 -1,154 Descending FlightAware ADS-B
Sun 11:39:14 PM 37.3819 -122.1700 114° Southeast 280 322 6,400 -1,286 Descending FlightAware ADS-B
Sun 11:39:18 PM 37.3801 -122.1640 111° Southeast 280 322 6,300 -1,500 Descending FlightAware ADS-B
Sun 11:39:22 PM 37.3782 -122.1570 109° East 280 322 6,200 -857 Descending FlightAware ADS-B
Sun 11:39:25 PM 37.3774 -122.1530 104° East 279 321 6,200 -857 Level FlightAware ADS-B
Sun 11:39:29 PM 37.3769 -122.1470 96° East 280 322 6,100 -1,714 Descending FlightAware ADS-B
Sun 11:39:32 PM 37.3768 -122.1430 92° East 279 321 6,000 -1,714 Descending FlightAware ADS-B
Sun 11:39:36 PM 37.3773 -122.1360 85° East 279 321 5,900 -750 Descending FlightAware ADS-B
Sun 11:39:40 PM 37.3784 -122.1300 77° East 277 319 5,900  Level FlightAware ADS-B
Sun 11:39:44 PM 37.3802 -122.1240 69° East 274 315 5,900  Level FlightAware ADS-B
Sun 11:39:48 PM 37.3824 -122.1180 65° Northeast 268 308 5,900  Level FlightAware ADS-B
Sun 11:39:51 PM 37.3848 -122.1140 53° Northeast 262 302 5,900 -750 Level FlightAware ADS-B
Sun 11:39:56 PM 37.3889 -122.1080 49° Northeast 257 296 5,800 -545 Descending FlightAware ADS-B
Sun 11:40:02 PM 37.3938 -122.1030 39° Northeast 249 287 5,800 -667 Level FlightAware ADS-B
Sun 11:40:14 PM 37.4054 -122.0940 32° Northeast 240 276 5,600 -1,059 Descending FlightAware ADS-B
Sun 11:40:19 PM 37.4107 -122.0910 24° Northeast 235 270 5,500 -1,333 Descending FlightAware ADS-B
Sun 11:40:23 PM 37.4148 -122.0900 11° North 233 268 5,400 -750 Descending FlightAware ADS-B
Sun 11:40:27 PM 37.4187 -122.0890 12° North 229 264 5,400 -750 Level FlightAware ADS-B
Sun 11:40:31 PM 37.4229 -122.0890 360° North 225 259 5,300 -1,500 Descending FlightAware ADS-B
Sun 11:40:35 PM 37.4265 -122.0900 348° North 221 254 5,200 -1,200 Descending FlightAware ADS-B
Sun 11:40:41 PM 37.4326 -122.0920 345° North 216 249 5,100 -1,200 Descending FlightAware ADS-B
Sun 11:40:45 PM 37.4369 -122.0940 340° North 215 247 5,000 -1,500 Descending FlightAware ADS-B
Sun 11:41:05 PM 37.4553 -122.1030 339° North 217 250 4,500 -1,029 Descending FlightAware ADS-B
Sun 11:41:20 PM 37.4702 -122.1110 337° Northwest 230 265 4,400 -400 Descending FlightAware ADS-B
Sun 11:41:35 PM 37.4847 -122.1180 339° North 219 252 4,300 -581 Descending FlightAware ADS-B
Sun 11:41:51 PM 37.4985 -122.1260 335° Northwest 208 239 4,100 -600 Descending FlightAware ADS-B
Sun 11:41:55 PM 37.5016 -122.1280 333° Northwest 203 234 4,100 -667 Level FlightAware ADS-B
Sun 11:42:00 PM 37.5054 -122.1320 320° Northwest 198 228 4,000 -1,429 Descending FlightAware ADS-B
Sun 11:42:16 PM 37.5160 -122.1450 316° Northwest 197 227 3,600 -1,364 Descending FlightAware ADS-B
Sun 11:42:22 PM 37.5198 -122.1500 314° West 195 224 3,500 -1,091 Descending FlightAware ADS-B
Sun 11:42:38 PM 37.5279 -122.1640 306° West 193 222 3,200 -1,333 Descending FlightAware ADS-B
Sun 11:42:49 PM 37.5336 -122.1750 303° West 193 222 2,900 -1,333 Descending FlightAware ADS-B
Sun 11:42:56 PM 37.5370 -122.1810 306° West 189 217 2,800 -545 Descending FlightAware ADS-B
Sun 11:43:00 PM 37.5390 -122.1860 297° West 188 216 2,800 -857 Level FlightAware ADS-B
Sun 11:43:17 PM 37.5453 -122.2010 298° West 181 208 2,500 -1,071 Descending FlightAware ADS-B
Sun 11:43:28 PM 37.5497 -122.2110 299° West 176 203 2,300 -923 Descending FlightAware ADS-B
Sun 11:43:43 PM 37.5555 -122.2250 298° West 171 197 2,100 -800 Descending FlightAware ADS-B
Sun 11:43:58 PM 37.5610 -122.2380 298° West 166 191 1,900 -774 Descending FlightAware ADS-B
Sun 11:44:14 PM 37.5664 -122.2510 298° West 159 183 1,700 -774 Descending FlightAware ADS-B
Sun 11:44:29 PM 37.5716 -122.2630 299° West 143 165 1,500 -667 Descending FlightAware ADS-B
Sun 11:44:41 PM 37.5752 -122.2710 300° West 139 160 1,400 -571 Descending FlightAware ADS-B
Sun 11:44:50 PM 37.5780 -122.2780 297° West 141 162 1,300 -1,000 Descending FlightAware ADS-B
Sun 11:45:05 PM 37.5826 -122.2890 298° West 138 159 1,000 -750 Descending FlightAware ADS-B
Sun 11:45:14 PM 37.5851 -122.2950 298° West 140 161 1,000 -353 Level FlightAware ADS-B
Sun 11:45:22 PM 37.5877 -122.3010 299° West 142 163 900 -643 Descending FlightAware ADS-B
Sun 11:45:42 PM 37.5935 -122.3150 298° West 142 163 700 -727 Descending FlightAware ADS-B
Sun 11:45:55 PM 37.5978 -122.3250 298° West 147 169 500 -909 Descending FlightAware ADS-B
Sun 11:46:15 PM 37.6042 -122.3400 298° West 146 168 200 -750 Descending FlightAware ADS-B
Sun 11:46:27 PM 37.6081 -122.3500 296° West 148 170 100 -500 Descending FlightAware ADS-B
Sun 11:46:55 PM 37.6168 -122.3710 298° West 140 161 -214 Descending FlightAware ADS-B
Sun 11:47:11 PM 37.6206 -122.3800 298° West 90 104  Level FlightAware ADS-B
Sun 11:51:06 PM 37.6190 -122.3930 261° West  Level FlightAware ADS-B

Login

Don't have an account? Register now (free) for customized features, flight alerts, and more!